Observation data for Caprock Canyons on 08/14/2019      Previous  Date  Next       Current Mesonet Observations  Soil Data  Daily Summary Page  Observations in Plain Language
KQU1 140500Z 06003KT 26/18 A3013 RMK A01 T02610182  RH  062%=      5-min Rain = 0
KQU1 140501Z 05004KT 26/18 A3013 RMK A01 T02610182  RH  062%=      5-min Rain = 0
KQU1 140502Z 05004KT 26/18 A3013 RMK A01 T02610183  RH  062%=      5-min Rain = 0
KQU1 140503Z 05005KT 26/18 A3013 RMK A01 T02610183  RH  062%=      5-min Rain = 0
KQU1 140504Z 05003KT 26/18 A3013 RMK A01 T02610182  RH  062%=      5-min Rain = 0
KQU1 140505Z 03004KT 26/18 A3013 RMK A01 T02610183  RH  062%=      5-min Rain = 0
KQU1 140506Z 03004KT 26/18 A3013 RMK A01 T02610183  RH  062%=      5-min Rain = 0
KQU1 140507Z 01003KT 26/19 A3013 RMK A01 T02610186  RH  063%=      5-min Rain = 0
KQU1 140508Z 03002KT 26/19 A3013 RMK A01 T02610186  RH  063%=      5-min Rain = 0
KQU1 140509Z 01002KT 26/18 A3013 RMK A01 T02610184  RH  063%=      5-min Rain = 0
KQU1 140510Z 02002KT 26/19 A3013 RMK A01 T02610185  RH  063%=      5-min Rain = 0
KQU1 140527Z 04005KT 26/18 A3013 RMK A01 T02580182  RH  063%=      5-min Rain = 0
KQU1 140528Z 04005KT 26/18 A3013 RMK A01 T02580183  RH  063%=      5-min Rain = 0
KQU1 140529Z 04004KT 26/18 A3013 RMK A01 T02580183  RH  063%=      5-min Rain = 0
KQU1 140530Z 03004KT 26/18 A3014 RMK A01 T02580184  RH  064%=      5-min Rain = 0
KQU1 140531Z 03006KT 26/19 A3014 RMK A01 T02580185  RH  064%=      5-min Rain = 0
KQU1 140532Z 03006KT 26/18 A3014 RMK A01 T02580184  RH  064%=      5-min Rain = 0
KQU1 140533Z 04006KT 26/18 A3014 RMK A01 T02580184  RH  064%=      5-min Rain = 0
KQU1 140534Z 03007KT 26/19 A3014 RMK A01 T02580185  RH  064%=      5-min Rain = 0
KQU1 140535Z 03007KT 26/19 A3014 RMK A01 T02580185  RH  064%=      5-min Rain = 0
KQU1 140536Z 03005KT 26/18 A3014 RMK A01 T02580184  RH  064%=      5-min Rain = 0
KQU1 140537Z 02006KT 26/18 A3014 RMK A01 T02580184  RH  064%=      5-min Rain = 0
KQU1 140538Z 03007KT 26/18 A3014 RMK A01 T02580184  RH  064%=      5-min Rain = 0
KQU1 140539Z 02004KT 26/18 A3015 RMK A01 T02580184  RH  064%=      5-min Rain = 0
KQU1 140540Z 02004KT 26/18 A3015 RMK A01 T02580184  RH  064%=      5-min Rain = 0
KQU1 140541Z 03006KT 26/18 A3015 RMK A01 T02580183  RH  064%=      5-min Rain = 0
KQU1 140542Z 03004KT 26/18 A3015 RMK A01 T02570184  RH  064%=      5-min Rain = 0
KQU1 140543Z 02005KT 26/18 A3015 RMK A01 T02570183  RH  064%=      5-min Rain = 0
KQU1 140544Z 02003KT 26/18 A3015 RMK A01 T02570184  RH  064%=      5-min Rain = 0
KQU1 140545Z 02003KT 26/18 A3015 RMK A01 T02570184  RH  064%=      5-min Rain = 0
KQU1 140546Z 01004KT 26/18 A3015 RMK A01 T02570184  RH  064%=      5-min Rain = 0
KQU1 140547Z 03006KT 26/18 A3015 RMK A01 T02570183  RH  064%=      5-min Rain = 0
KQU1 140548Z 03006KT 26/18 A3016 RMK A01 T02570184  RH  064%=      5-min Rain = 0
KQU1 140549Z 02004KT 26/19 A3016 RMK A01 T02570185  RH  065%=      5-min Rain = 0
KQU1 140550Z 03003KT 26/19 A3016 RMK A01 T02570185  RH  064%=      5-min Rain = 0
KQU1 140551Z 02004KT 26/19 A3016 RMK A01 T02560185  RH  065%=      5-min Rain = 0
KQU1 140552Z 01004KT 26/19 A3016 RMK A01 T02560185  RH  065%=      5-min Rain = 0
KQU1 140553Z 01003KT 26/19 A3016 RMK A01 T02560185  RH  065%=      5-min Rain = 0
KQU1 140554Z 01003KT 26/18 A3016 RMK A01 T02560184  RH  064%=      5-min Rain = 0
KQU1 140555Z 00003KT 26/18 A3016 RMK A01 T02560184  RH  064%=      5-min Rain = 0
KQU1 140556Z 02004KT 26/18 A3016 RMK A01 T02560184  RH  064%=      5-min Rain = 0
KQU1 140557Z 03005KT 26/18 A3016 RMK A01 T02560184  RH  064%=      5-min Rain = 0
KQU1 140558Z 03005KT 26/18 A3016 RMK A01 T02550184  RH  065%=      5-min Rain = 0
KQU1 140559Z 03006KT 26/18 A3016 RMK A01 T02550184  RH  065%=      5-min Rain = 0
KQU1 140600Z 03007KT 26/18 A3016 RMK A01 T02550184  RH  065%=      5-min Rain = 0
KQU1 140601Z 03007KT 26/19 A3016 RMK A01 T02550185  RH  065%=      5-min Rain = 0
KQU1 140602Z 03006KT 26/18 A3016 RMK A01 T02550184  RH  065%=      5-min Rain = 0
KQU1 140603Z 03007KT 26/18 A3016 RMK A01 T02550184  RH  065%=      5-min Rain = 0
KQU1 140604Z 03006KT 26/19 A3016 RMK A01 T02550185  RH  065%=      5-min Rain = 0
KQU1 140605Z 04007KT 26/19 A3016 RMK A01 T02550185  RH  065%=      5-min Rain = 0
KQU1 140606Z 03006KT 26/19 A3016 RMK A01 T02550186  RH  065%=      5-min Rain = 0
KQU1 140607Z 03007KT 26/19 A3016 RMK A01 T02550185  RH  065%=      5-min Rain = 0
KQU1 140608Z 03008KT 26/19 A3016 RMK A01 T02550185  RH  065%=      5-min Rain = 0
KQU1 140609Z 04008KT 26/18 A3016 RMK A01 T02550184  RH  065%=      5-min Rain = 0
KQU1 140610Z 04006KT 26/18 A3016 RMK A01 T02550184  RH  065%=      5-min Rain = 0
KQU1 140611Z 03007KT 26/19 A3016 RMK A01 T02550185  RH  065%=      5-min Rain = 0
KQU1 140612Z 04007KT 26/19 A3015 RMK A01 T02550186  RH  066%=      5-min Rain = 0
KQU1 140613Z 03009KT 26/18 A3015 RMK A01 T02550184  RH  065%=      5-min Rain = 0
KQU1 140614Z 03005KT 25/19 A3015 RMK A01 T02540185  RH  065%=      5-min Rain = 0
KQU1 140615Z 04005KT 25/19 A3015 RMK A01 T02540185  RH  066%=      5-min Rain = 0
KQU1 140616Z 04007KT 25/19 A3015 RMK A01 T02540185  RH  066%=      5-min Rain = 0
KQU1 140617Z 04008KT 25/19 A3015 RMK A01 T02540185  RH  066%=      5-min Rain = 0
KQU1 140618Z 04008KT 25/18 A3015 RMK A01 T02530184  RH  066%=      5-min Rain = 0
KQU1 140619Z 04007KT 25/19 A3015 RMK A01 T02530185  RH  066%=      5-min Rain = 0
KQU1 140620Z 04007KT 25/19 A3015 RMK A01 T02530186  RH  066%=      5-min Rain = 0
KQU1 140621Z 04009KT 25/19 A3015 RMK A01 T02530186  RH  066%=      5-min Rain = 0
KQU1 140622Z 03008KT 25/19 A3016 RMK A01 T02530185  RH  066%=      5-min Rain = 0
KQU1 140623Z 03007KT 25/19 A3016 RMK A01 T02530186  RH  066%=      5-min Rain = 0
KQU1 140624Z 03006KT 25/19 A3016 RMK A01 T02530187  RH  067%=      5-min Rain = 0
KQU1 140625Z 03008KT 25/19 A3016 RMK A01 T02530186  RH  067%=      5-min Rain = 0
KQU1 140626Z 03008KT 25/19 A3016 RMK A01 T02530187  RH  067%=      5-min Rain = 0
KQU1 140627Z 03007KT 25/19 A3016 RMK A01 T02520187  RH  067%=      5-min Rain = 0
KQU1 140628Z 03007KT 25/19 A3016 RMK A01 T02520186  RH  067%=      5-min Rain = 0
KQU1 140629Z 03007KT 25/19 A3016 RMK A01 T02520187  RH  067%=      5-min Rain = 0
KQU1 140630Z 04006KT 25/19 A3016 RMK A01 T02520187  RH  067%=      5-min Rain = 0
KQU1 140631Z 04006KT 25/19 A3016 RMK A01 T02520187  RH  067%=      5-min Rain = 0
KQU1 140632Z 03007KT 25/19 A3016 RMK A01 T02520187  RH  067%=      5-min Rain = 0
KQU1 140633Z 03007KT 25/19 A3016 RMK A01 T02520185  RH  067%=      5-min Rain = 0
KQU1 140634Z 04006KT 25/19 A3016 RMK A01 T02520186  RH  067%=      5-min Rain = 0
KQU1 140635Z 04008KT 25/19 A3016 RMK A01 T02510186  RH  067%=      5-min Rain = 0
KQU1 140636Z 04007KT 25/19 A3016 RMK A01 T02510185  RH  067%=      5-min Rain = 0
KQU1 140637Z 03007KT 25/19 A3016 RMK A01 T02510186  RH  067%=      5-min Rain = 0
KQU1 140638Z 03008KT 25/19 A3016 RMK A01 T02510186  RH  067%=      5-min Rain = 0
KQU1 140639Z 05007KT 25/19 A3016 RMK A01 T02500185  RH  067%=      5-min Rain = 0
KQU1 140640Z 05007KT 25/19 A3016 RMK A01 T02500185  RH  067%=      5-min Rain = 0
KQU1 140641Z 03007KT 25/18 A3016 RMK A01 T02500184  RH  067%=      5-min Rain = 0
KQU1 140642Z 04005KT 25/19 A3016 RMK A01 T02500186  RH  068%=      5-min Rain = 0
KQU1 140643Z 03006KT 25/19 A3016 RMK A01 T02490187  RH  068%=      5-min Rain = 0
KQU1 140644Z 03006KT 25/19 A3016 RMK A01 T02490188  RH  069%=      5-min Rain = 0
KQU1 140645Z 04006KT 25/19 A3016 RMK A01 T02490187  RH  069%=      5-min Rain = 0
KQU1 140646Z 04007KT 25/19 A3016 RMK A01 T02490187  RH  068%=      5-min Rain = 0
KQU1 140647Z 04008KT 25/19 A3016 RMK A01 T02490187  RH  069%=      5-min Rain = 0
KQU1 140648Z 03007KT 25/19 A3016 RMK A01 T02480186  RH  068%=      5-min Rain = 0
KQU1 140649Z 04005KT 25/19 A3016 RMK A01 T02480187  RH  069%=      5-min Rain = 0
KQU1 140650Z 03006KT 25/19 A3016 RMK A01 T02480187  RH  069%=      5-min Rain = 0
KQU1 140651Z 03006KT 25/19 A3016 RMK A01 T02480187  RH  069%=      5-min Rain = 0
KQU1 140652Z 03006KT 25/19 A3016 RMK A01 T02480187  RH  069%=      5-min Rain = 0
KQU1 140653Z 03004KT 25/19 A3016 RMK A01 T02470187  RH  069%=      5-min Rain = 0
KQU1 140654Z 04006KT 25/19 A3016 RMK A01 T02470188  RH  069%=      5-min Rain = 0
KQU1 140655Z 03004KT 25/19 A3016 RMK A01 T02470188  RH  070%=      5-min Rain = 0
KQU1 140656Z 03005KT 25/19 A3016 RMK A01 T02470188  RH  070%=      5-min Rain = 0
KQU1 140657Z 05004KT 25/19 A3015 RMK A01 T02470187  RH  069%=      5-min Rain = 0
KQU1 140658Z 04004KT 25/19 A3015 RMK A01 T02470187  RH  069%=      5-min Rain = 0
KQU1 140659Z 05004KT 25/19 A3015 RMK A01 T02460186  RH  069%=      5-min Rain = 0
KQU1 140700Z 04003KT 25/19 A3015 RMK A01 T02460187  RH  070%=      5-min Rain = 0
KQU1 140701Z 04003KT 25/19 A3015 RMK A01 T02460187  RH  069%=      5-min Rain = 0
KQU1 140702Z 03005KT 25/19 A3015 RMK A01 T02460187  RH  070%=      5-min Rain = 0
KQU1 140703Z 03005KT 25/19 A3015 RMK A01 T02460187  RH  070%=      5-min Rain = 0
KQU1 140704Z 05003KT 25/19 A3015 RMK A01 T02450187  RH  070%=      5-min Rain = 0
KQU1 140705Z 03003KT 25/19 A3015 RMK A01 T02450187  RH  070%=      5-min Rain = 0
KQU1 140706Z 06002KT 25/19 A3015 RMK A01 T02450187  RH  070%=      5-min Rain = 0
KQU1 140707Z 06002KT 25/19 A3015 RMK A01 T02450187  RH  070%=      5-min Rain = 0
KQU1 140708Z 06004KT 25/19 A3015 RMK A01 T02450187  RH  070%=      5-min Rain = 0
KQU1 140709Z 04003KT 24/19 A3015 RMK A01 T02440187  RH  070%=      5-min Rain = 0
KQU1 140710Z 02003KT 24/19 A3015 RMK A01 T02440187  RH  070%=      5-min Rain = 0
KQU1 140711Z 04004KT 24/19 A3015 RMK A01 T02440188  RH  071%=      5-min Rain = 0
KQU1 140712Z 04004KT 24/19 A3015 RMK A01 T02440187  RH  071%=      5-min Rain = 0
KQU1 140713Z 05003KT 24/19 A3015 RMK A01 T02440187  RH  071%=      5-min Rain = 0
KQU1 140714Z 03003KT 24/19 A3015 RMK A01 T02440188  RH  071%=      5-min Rain = 0
KQU1 140715Z 03002KT 24/19 A3015 RMK A01 T02440188  RH  071%=      5-min Rain = 0
KQU1 140716Z 03003KT 24/19 A3014 RMK A01 T02430188  RH  071%=      5-min Rain = 0
KQU1 140717Z 02003KT 24/19 A3014 RMK A01 T02430188  RH  071%=      5-min Rain = 0
KQU1 140718Z 05002KT 24/19 A3014 RMK A01 T02430187  RH  071%=      5-min Rain = 0
KQU1 140719Z 02001KT 24/19 A3014 RMK A01 T02430187  RH  071%=      5-min Rain = 0
KQU1 140720Z 00000KT 24/19 A3014 RMK A01 T02430187  RH  071%=      5-min Rain = 0
KQU1 140721Z 00000KT 24/19 A3014 RMK A01 T02420187  RH  071%=      5-min Rain = 0
KQU1 140722Z 32000KT 24/19 A3014 RMK A01 T02420186  RH  071%=      5-min Rain = 0
KQU1 140723Z 34001KT 24/19 A3014 RMK A01 T02410185  RH  071%=      5-min Rain = 0
KQU1 140724Z 07001KT 24/19 A3014 RMK A01 T02410186  RH  071%=      5-min Rain = 0
KQU1 140725Z 04002KT 24/19 A3014 RMK A01 T02410186  RH  071%=      5-min Rain = 0
KQU1 140726Z 02001KT 24/19 A3014 RMK A01 T02410186  RH  071%=      5-min Rain = 0
KQU1 140727Z 00000KT 24/19 A3014 RMK A01 T02410185  RH  071%=      5-min Rain = 0
KQU1 140728Z 05000KT 24/19 A3014 RMK A01 T02400185  RH  071%=      5-min Rain = 0
KQU1 140729Z 05001KT 24/19 A3014 RMK A01 T02400186  RH  072%=      5-min Rain = 0
KQU1 140730Z 02002KT 24/19 A3014 RMK A01 T02400187  RH  072%=      5-min Rain = 0
KQU1 140731Z 03002KT 24/19 A3014 RMK A01 T02400187  RH  072%=      5-min Rain = 0
KQU1 140732Z 02005KT 24/19 A3015 RMK A01 T02400189  RH  073%=      5-min Rain = 0
KQU1 140733Z 36004KT 24/19 A3015 RMK A01 T02390189  RH  073%=      5-min Rain = 0
KQU1 140734Z 01005KT 24/19 A3015 RMK A01 T02390189  RH  073%=      5-min Rain = 0
KQU1 140735Z 01003KT 24/19 A3015 RMK A01 T02390188  RH  073%=      5-min Rain = 0
KQU1 140736Z 03006KT 24/19 A3015 RMK A01 T02390189  RH  074%=      5-min Rain = 0
KQU1 140737Z 02009KT 24/19 A3015 RMK A01 T02380189  RH  074%=      5-min Rain = 0
KQU1 140738Z 03007KT 24/19 A3015 RMK A01 T02380190  RH  074%=      5-min Rain = 0
KQU1 140739Z 02009KT 24/19 A3015 RMK A01 T02380190  RH  075%=      5-min Rain = 0
KQU1 140740Z 02008G13KT 24/19 A3015 RMK A01 T02380190  RH  074%=      5-min Rain = 0
KQU1 140741Z 02009KT 24/19 A3015 RMK A01 T02380189  RH  074%=      5-min Rain = 0
KQU1 140742Z 01004KT 24/19 A3015 RMK A01 T02370189  RH  074%=      5-min Rain = 0
KQU1 140743Z 02006KT 24/19 A3015 RMK A01 T02370189  RH  074%=      5-min Rain = 0
KQU1 140744Z 02006KT 24/19 A3015 RMK A01 T02370189  RH  075%=      5-min Rain = 0
KQU1 140745Z 02004G10KT 24/19 A3015 RMK A01 T02370189  RH  075%=      5-min Rain = 0
KQU1 140746Z 03007KT 24/19 A3015 RMK A01 T02360189  RH  075%=      5-min Rain = 0
KQU1 140747Z 03008KT 24/19 A3015 RMK A01 T02360189  RH  075%=      5-min Rain = 0
KQU1 140748Z 03008KT 24/19 A3015 RMK A01 T02360189  RH  075%=      5-min Rain = 0
KQU1 140749Z 03008KT 24/19 A3015 RMK A01 T02360189  RH  075%=      5-min Rain = 0
KQU1 140750Z 03007KT 24/19 A3015 RMK A01 T02360189  RH  075%=      5-min Rain = 0
KQU1 140751Z 02005KT 24/19 A3015 RMK A01 T02360188  RH  075%=      5-min Rain = 0
KQU1 140752Z 03005KT 24/19 A3015 RMK A01 T02350188  RH  075%=      5-min Rain = 0
KQU1 140753Z 02004KT 24/19 A3015 RMK A01 T02350188  RH  075%=      5-min Rain = 0
KQU1 140754Z 01004KT 24/19 A3015 RMK A01 T02350188  RH  075%=      5-min Rain = 0
KQU1 140755Z 02005KT 24/19 A3015 RMK A01 T02350187  RH  075%=      5-min Rain = 0
KQU1 140756Z 02004KT 23/19 A3015 RMK A01 T02340187  RH  075%=      5-min Rain = 0
KQU1 140757Z 02004KT 23/19 A3015 RMK A01 T02340187  RH  075%=      5-min Rain = 0
KQU1 140758Z 03005G12KT 23/19 A3015 RMK A01 T02340188  RH  075%=      5-min Rain = 0
KQU1 140759Z 01002KT 23/19 A3015 RMK A01 T02340187  RH  075%=      5-min Rain = 0
KQU1 140800Z 36006G11KT 23/19 A3015 RMK A01 T02330186  RH  074%=      5-min Rain = 0
KQU1 140801Z 01005KT 23/18 A3015 RMK A01 T02330184  RH  074%=      5-min Rain = 0
KQU1 140802Z 01005G11KT 23/18 A3015 RMK A01 T02330183  RH  073%=      5-min Rain = 0
KQU1 140803Z 36005KT 23/18 A3015 RMK A01 T02320182  RH  073%=      5-min Rain = 0
KQU1 140804Z 02008G15KT 23/18 A3015 RMK A01 T02320182  RH  074%=      5-min Rain = 0
KQU1 140805Z 01004G9KT 23/18 A3015 RMK A01 T02320180  RH  073%=      5-min Rain = 0
KQU1 140806Z 01008G16KT 23/18 A3016 RMK A01 T02310180  RH  073%=      5-min Rain = 0
KQU1 140807Z 00009G16KT 23/18 A3016 RMK A01 T02310177  RH  071%=      5-min Rain = 0
KQU1 140808Z 01009G16KT 23/17 A3016 RMK A01 T02300173  RH  070%=      5-min Rain = 0
KQU1 140809Z 02006G11KT 23/17 A3016 RMK A01 T02300172  RH  070%=      5-min Rain = 0
KQU1 140810Z 00007G14KT 23/17 A3015 RMK A01 T02290169  RH  069%=      5-min Rain = 0
KQU1 140811Z 03007G17KT 23/17 A3015 RMK A01 T02290169  RH  069%=      5-min Rain = 0
KQU1 140812Z 02013G18KT 23/17 A3015 RMK A01 T02290167  RH  068%=      5-min Rain = 0
KQU1 140813Z 02012KT 23/17 A3015 RMK A01 T02280166  RH  068%=      5-min Rain = 0
KQU1 140814Z 01009G14KT 23/17 A3015 RMK A01 T02280166  RH  068%=      5-min Rain = 0
KQU1 140815Z 02008G13KT 23/17 A3015 RMK A01 T02280167  RH  068%=      5-min Rain = 0
KQU1 140816Z 02006KT 23/17 A3015 RMK A01 T02280167  RH  069%=      5-min Rain = 0
KQU1 140817Z 00006G13KT 23/17 A3016 RMK A01 T02270167  RH  069%=      5-min Rain = 0
KQU1 140818Z 35009KT 23/17 A3016 RMK A01 T02270167  RH  069%=      5-min Rain = 0
KQU1 140819Z 00009G15KT 23/16 A3016 RMK A01 T02260164  RH  068%=      5-min Rain = 0
KQU1 140820Z 02005G10KT 23/16 A3016 RMK A01 T02260163  RH  068%=      5-min Rain = 0
KQU1 140821Z 02008G14KT 23/16 A3016 RMK A01 T02250162  RH  067%=      5-min Rain = 0
KQU1 140822Z 01010G15KT 22/16 A3016 RMK A01 T02240159  RH  067%=      5-min Rain = 0
KQU1 140823Z 02007G13KT 22/16 A3016 RMK A01 T02240159  RH  066%=      5-min Rain = 0
KQU1 140824Z 01006G12KT 22/16 A3016 RMK A01 T02240158  RH  066%=      5-min Rain = 0
KQU1 140825Z 00005KT 22/16 A3016 RMK A01 T02240159  RH  067%=      5-min Rain = 0
KQU1 140826Z 01007KT 22/16 A3016 RMK A01 T02230159  RH  067%=      5-min Rain = 0
KQU1 140827Z 00009KT 22/16 A3016 RMK A01 T02230157  RH  066%=      5-min Rain = 0
KQU1 140828Z 00007G14KT 22/16 A3016 RMK A01 T02220156  RH  066%=      5-min Rain = 0
KQU1 140829Z 01005KT 22/16 A3016 RMK A01 T02220156  RH  066%=      5-min Rain = 0
KQU1 140830Z 00007G14KT 22/16 A3016 RMK A01 T02220156  RH  066%=      5-min Rain = 0
KQU1 140831Z 35008KT 22/16 A3016 RMK A01 T02210156  RH  067%=      5-min Rain = 0
KQU1 140832Z 35007G13KT 22/16 A3016 RMK A01 T02210156  RH  066%=      5-min Rain = 0
KQU1 140833Z 00006G11KT 22/16 A3016 RMK A01 T02210155  RH  066%=      5-min Rain = 0
KQU1 140834Z 01005G11KT 22/16 A3016 RMK A01 T02210155  RH  066%=      5-min Rain = 0
KQU1 140835Z 34005G10KT 22/16 A3015 RMK A01 T02200155  RH  066%=      5-min Rain = 0
KQU1 140836Z 35008G13KT 22/16 A3015 RMK A01 T02200155  RH  067%=      5-min Rain = 0
KQU1 140837Z 34010G16KT 22/15 A3015 RMK A01 T02190152  RH  066%=      5-min Rain = 0
KQU1 140838Z 35009KT 22/15 A3015 RMK A01 T02190153  RH  066%=      5-min Rain = 0
KQU1 140839Z 35007G13KT 22/15 A3015 RMK A01 T02180154  RH  067%=      5-min Rain = 0
KQU1 140840Z 00008KT 22/15 A3015 RMK A01 T02180153  RH  066%=      5-min Rain = 0
KQU1 140841Z 35009KT 22/15 A3015 RMK A01 T02180152  RH  066%=      5-min Rain = 0
KQU1 140842Z 01006KT 22/15 A3015 RMK A01 T02170153  RH  067%=      5-min Rain = 0
KQU1 140843Z 36004G9KT 22/15 A3015 RMK A01 T02170153  RH  067%=      5-min Rain = 0
KQU1 140844Z 36011G17KT 22/15 A3015 RMK A01 T02160151  RH  066%=      5-min Rain = 0
KQU1 140845Z 36009G15KT 22/15 A3015 RMK A01 T02160149  RH  066%=      5-min Rain = 0
KQU1 140846Z 00007G12KT 22/15 A3015 RMK A01 T02160150  RH  066%=      5-min Rain = 0
KQU1 140847Z 35008KT 22/15 A3015 RMK A01 T02160150  RH  066%=      5-min Rain = 0
KQU1 140848Z 35009KT 22/15 A3015 RMK A01 T02160149  RH  066%=      5-min Rain = 0
KQU1 140849Z 36007KT 22/15 A3015 RMK A01 T02150150  RH  066%=      5-min Rain = 0
KQU1 140850Z 35007G12KT 22/15 A3015 RMK A01 T02150150  RH  066%=      5-min Rain = 0
KQU1 140851Z 35008KT 22/15 A3015 RMK A01 T02150148  RH  066%=      5-min Rain = 0
KQU1 140852Z 35008G14KT 21/15 A3016 RMK A01 T02140148  RH  066%=      5-min Rain = 0
KQU1 140853Z 36007KT 21/15 A3016 RMK A01 T02140148  RH  066%=      5-min Rain = 0
KQU1 140854Z 35009KT 21/15 A3016 RMK A01 T02140148  RH  066%=      5-min Rain = 0
KQU1 140855Z 35011KT 21/15 A3016 RMK A01 T02140146  RH  065%=      5-min Rain = 0
KQU1 140856Z 35011KT 21/15 A3015 RMK A01 T02130145  RH  065%=      5-min Rain = 0
KQU1 140857Z 00007KT 21/15 A3016 RMK A01 T02130145  RH  065%=      5-min Rain = 0
KQU1 140858Z 36009G17KT 21/15 A3016 RMK A01 T02130145  RH  065%=      5-min Rain = 0
KQU1 140859Z 35010G15KT 21/15 A3016 RMK A01 T02120145  RH  065%=      5-min Rain = 0
KQU1 140900Z 36008G13KT 21/14 A3016 RMK A01 T02120144  RH  065%=      5-min Rain = 0
KQU1 140901Z 00009KT 21/14 A3016 RMK A01 T02120144  RH  065%=      5-min Rain = 0
KQU1 140902Z 35006G13KT 21/14 A3016 RMK A01 T02120144  RH  065%=      5-min Rain = 0
KQU1 140903Z 01009KT 21/14 A3016 RMK A01 T02120143  RH  065%=      5-min Rain = 0
KQU1 140904Z 00007KT 21/14 A3016 RMK A01 T02110143  RH  065%=      5-min Rain = 0
KQU1 140905Z 36004G9KT 21/14 A3016 RMK A01 T02110142  RH  065%=      5-min Rain = 0
KQU1 140906Z 01003KT 21/14 A3016 RMK A01 T02110144  RH  065%=      5-min Rain = 0
KQU1 140907Z 01006KT 21/14 A3016 RMK A01 T02110143  RH  065%=      5-min Rain = 0
KQU1 140908Z 36006KT 21/14 A3016 RMK A01 T02110143  RH  065%=      5-min Rain = 0
KQU1 140909Z 01007KT 21/14 A3016 RMK A01 T02110143  RH  065%=      5-min Rain = 0
KQU1 140910Z 00007KT 21/14 A3016 RMK A01 T02100142  RH  065%=      5-min Rain = 0
KQU1 140911Z 35006KT 21/14 A3016 RMK A01 T02100143  RH  065%=      5-min Rain = 0
KQU1 140912Z 36007KT 21/14 A3016 RMK A01 T02100143  RH  066%=      5-min Rain = 0
KQU1 140913Z 00004KT 21/14 A3016 RMK A01 T02100143  RH  065%=      5-min Rain = 0
KQU1 140914Z 36007KT 21/14 A3016 RMK A01 T02100143  RH  066%=      5-min Rain = 0
KQU1 140915Z 00007KT 21/14 A3016 RMK A01 T02090142  RH  065%=      5-min Rain = 0
KQU1 140916Z 36007KT 21/14 A3016 RMK A01 T02090142  RH  065%=      5-min Rain = 0
KQU1 140917Z 00007KT 21/14 A3016 RMK A01 T02090143  RH  066%=      5-min Rain = 0
KQU1 140918Z 00006KT 21/14 A3016 RMK A01 T02090143  RH  066%=      5-min Rain = 0
KQU1 140919Z 00008KT 21/14 A3017 RMK A01 T02090143  RH  066%=      5-min Rain = 0
KQU1 140920Z 35007KT 21/14 A3017 RMK A01 T02090143  RH  066%=      5-min Rain = 0
KQU1 140921Z 36006KT 21/14 A3017 RMK A01 T02080144  RH  067%=      5-min Rain = 0
KQU1 140922Z 35008KT 21/14 A3017 RMK A01 T02080143  RH  066%=      5-min Rain = 0
KQU1 140923Z 35007G12KT 21/14 A3017 RMK A01 T02080143  RH  067%=      5-min Rain = 0
KQU1 140924Z 36007KT 21/14 A3017 RMK A01 T02070144  RH  067%=      5-min Rain = 0
KQU1 140925Z 35008KT 21/14 A3017 RMK A01 T02070143  RH  066%=      5-min Rain = 0
KQU1 140926Z 36007KT 21/14 A3017 RMK A01 T02070142  RH  066%=      5-min Rain = 0
KQU1 140927Z 36008KT 21/14 A3017 RMK A01 T02070143  RH  067%=      5-min Rain = 0
KQU1 140928Z 36009KT 21/14 A3017 RMK A01 T02070142  RH  066%=      5-min Rain = 0
KQU1 140929Z 00009KT 21/14 A3017 RMK A01 T02070142  RH  066%=      5-min Rain = 0
KQU1 140930Z 35008KT 21/14 A3017 RMK A01 T02070142  RH  066%=      5-min Rain = 0
KQU1 140931Z 36008KT 21/14 A3017 RMK A01 T02070142  RH  066%=      5-min Rain = 0
KQU1 140932Z 36008G13KT 21/14 A3017 RMK A01 T02070140  RH  066%=      5-min Rain = 0
KQU1 140933Z 36009KT 21/14 A3017 RMK A01 T02070141  RH  066%=      5-min Rain = 0
KQU1 140934Z 36008KT 21/14 A3017 RMK A01 T02070141  RH  066%=      5-min Rain = 0
KQU1 140935Z 35006KT 21/14 A3017 RMK A01 T02070141  RH  066%=      5-min Rain = 0
KQU1 140936Z 36008KT 21/14 A3017 RMK A01 T02070141  RH  066%=      5-min Rain = 0
KQU1 140937Z 36008KT 21/14 A3017 RMK A01 T02070141  RH  066%=      5-min Rain = 0
KQU1 140938Z 36007KT 21/14 A3017 RMK A01 T02070142  RH  066%=      5-min Rain = 0
KQU1 140939Z 35007KT 21/14 A3017 RMK A01 T02070141  RH  066%=      5-min Rain = 0
KQU1 140940Z 35008G13KT 21/14 A3017 RMK A01 T02070142  RH  066%=      5-min Rain = 0
KQU1 140941Z 35007KT 21/14 A3017 RMK A01 T02070142  RH  066%=      5-min Rain = 0
KQU1 140942Z 36007KT 21/14 A3017 RMK A01 T02070142  RH  066%=      5-min Rain = 0
KQU1 140943Z 35009KT 21/14 A3017 RMK A01 T02070141  RH  066%=      5-min Rain = 0
KQU1 140944Z 35005KT 21/14 A3017 RMK A01 T02070142  RH  066%=      5-min Rain = 0
KQU1 140945Z 35007G12KT 21/14 A3017 RMK A01 T02070141  RH  066%=      5-min Rain = 0
KQU1 140946Z 35006G11KT 21/14 A3017 RMK A01 T02060141  RH  066%=      5-min Rain = 0
KQU1 140947Z 36009KT 21/14 A3017 RMK A01 T02060141  RH  066%=      5-min Rain = 0
KQU1 140948Z 35008KT 21/14 A3017 RMK A01 T02060141  RH  066%=      5-min Rain = 0
KQU1 140949Z 00007G12KT 21/14 A3017 RMK A01 T02060142  RH  066%=      5-min Rain = 0
KQU1 140950Z 35008KT 21/14 A3018 RMK A01 T02060141  RH  066%=      5-min Rain = 0
KQU1 140951Z 36004KT 21/14 A3018 RMK A01 T02060141  RH  066%=      5-min Rain = 0
KQU1 140952Z 35007KT 21/14 A3018 RMK A01 T02060141  RH  066%=      5-min Rain = 0
KQU1 140953Z 00007KT 21/14 A3018 RMK A01 T02060140  RH  066%=      5-min Rain = 0
KQU1 140954Z 35004KT 21/14 A3018 RMK A01 T02060141  RH  066%=      5-min Rain = 0
KQU1 140955Z 01006KT 21/14 A3018 RMK A01 T02060141  RH  066%=      5-min Rain = 0
KQU1 140956Z 36006KT 21/14 A3018 RMK A01 T02060141  RH  066%=      5-min Rain = 0
KQU1 140957Z 36006KT 21/14 A3018 RMK A01 T02060141  RH  066%=      5-min Rain = 0
KQU1 140958Z 36007KT 21/14 A3018 RMK A01 T02060142  RH  067%=      5-min Rain = 0
KQU1 140959Z 00007KT 21/14 A3018 RMK A01 T02060141  RH  066%=      5-min Rain = 0
KQU1 141000Z 36007KT 21/14 A3018 RMK A01 T02050141  RH  066%=      5-min Rain = 0
KQU1 141001Z 00006KT 21/14 A3018 RMK A01 T02050140  RH  066%=      5-min Rain = 0
KQU1 141002Z 36009KT 21/14 A3018 RMK A01 T02050140  RH  066%=      5-min Rain = 0
KQU1 141003Z 36007KT 21/14 A3018 RMK A01 T02050141  RH  067%=      5-min Rain = 0
KQU1 141004Z 00007KT 21/14 A3018 RMK A01 T02050140  RH  066%=      5-min Rain = 0
KQU1 141005Z 01007KT 21/14 A3018 RMK A01 T02050141  RH  067%=      5-min Rain = 0
KQU1 141006Z 36006KT 21/14 A3018 RMK A01 T02050142  RH  067%=      5-min Rain = 0
KQU1 141007Z 36007KT 21/14 A3019 RMK A01 T02050140  RH  067%=      5-min Rain = 0
KQU1 141008Z 00006KT 20/14 A3019 RMK A01 T02040141  RH  067%=      5-min Rain = 0
KQU1 141009Z 01007KT 20/14 A3019 RMK A01 T02040140  RH  067%=      5-min Rain = 0
KQU1 141010Z 36007KT 20/14 A3019 RMK A01 T02040140  RH  067%=      5-min Rain = 0
KQU1 141011Z 35007KT 20/14 A3019 RMK A01 T02040141  RH  067%=      5-min Rain = 0
KQU1 141012Z 36005KT 20/14 A3019 RMK A01 T02040141  RH  067%=      5-min Rain = 0
KQU1 141013Z 36006KT 20/14 A3019 RMK A01 T02040142  RH  067%=      5-min Rain = 0
KQU1 141014Z 01004KT 20/14 A3019 RMK A01 T02030141  RH  067%=      5-min Rain = 0
KQU1 141015Z 35005KT 20/14 A3019 RMK A01 T02030141  RH  067%=      5-min Rain = 0
KQU1 141016Z 36007KT 20/14 A3019 RMK A01 T02030140  RH  067%=      5-min Rain = 0
KQU1 141017Z 36008KT 20/14 A3019 RMK A01 T02030140  RH  067%=      5-min Rain = 0
KQU1 141018Z 01006KT 20/14 A3019 RMK A01 T02030141  RH  067%=      5-min Rain = 0
KQU1 141019Z 35004G11KT 20/14 A3019 RMK A01 T02030141  RH  068%=      5-min Rain = 0
KQU1 141020Z 00006KT 20/14 A3019 RMK A01 T02030141  RH  068%=      5-min Rain = 0
KQU1 141021Z 36006KT 20/14 A3019 RMK A01 T02030142  RH  068%=      5-min Rain = 0
KQU1 141022Z 01005G11KT 20/14 A3019 RMK A01 T02030141  RH  068%=      5-min Rain = 0
KQU1 141023Z 36007KT 20/14 A3019 RMK A01 T02030140  RH  067%=      5-min Rain = 0
KQU1 141024Z 36007KT 20/14 A3019 RMK A01 T02030140  RH  067%=      5-min Rain = 0
KQU1 141025Z 00006KT 20/14 A3019 RMK A01 T02030141  RH  068%=      5-min Rain = 0
KQU1 141026Z 00006KT 20/14 A3019 RMK A01 T02030141  RH  068%=      5-min Rain = 0
KQU1 141027Z 36005KT 20/14 A3019 RMK A01 T02030142  RH  068%=      5-min Rain = 0
KQU1 141028Z 00006KT 20/14 A3019 RMK A01 T02030141  RH  068%=      5-min Rain = 0
KQU1 141029Z 36005KT 20/14 A3019 RMK A01 T02020141  RH  068%=      5-min Rain = 0
KQU1 141030Z 00007KT 20/14 A3019 RMK A01 T02020141  RH  068%=      5-min Rain = 0
KQU1 141031Z 00005KT 20/14 A3019 RMK A01 T02020141  RH  068%=      5-min Rain = 0
KQU1 141032Z 00007KT 20/14 A3019 RMK A01 T02020141  RH  068%=      5-min Rain = 0
KQU1 141033Z 36005KT 20/14 A3019 RMK A01 T02020141  RH  068%=      5-min Rain = 0
KQU1 141034Z 36005KT 20/14 A3019 RMK A01 T02020141  RH  068%=      5-min Rain = 0
KQU1 141035Z 36006KT 20/14 A3019 RMK A01 T02010142  RH  068%=      5-min Rain = 0
KQU1 141036Z 36008KT 20/14 A3019 RMK A01 T02010141  RH  068%=      5-min Rain = 0
KQU1 141037Z 36007KT 20/14 A3019 RMK A01 T02010141  RH  068%=      5-min Rain = 0
KQU1 141038Z 35006KT 20/14 A3019 RMK A01 T02010141  RH  068%=      5-min Rain = 0
KQU1 141039Z 36006G11KT 20/14 A3019 RMK A01 T02010141  RH  068%=      5-min Rain = 0
KQU1 141040Z 35005G10KT 20/14 A3019 RMK A01 T02010142  RH  069%=      5-min Rain = 0
KQU1 141041Z 35005KT 20/14 A3019 RMK A01 T02010142  RH  069%=      5-min Rain = 0
KQU1 141042Z 35007KT 20/14 A3019 RMK A01 T02010142  RH  069%=      5-min Rain = 0
KQU1 141043Z 35005KT 20/14 A3019 RMK A01 T02010143  RH  069%=      5-min Rain = 0
KQU1 141044Z 00005KT 20/14 A3019 RMK A01 T02010143  RH  069%=      5-min Rain = 0
KQU1 141045Z 36006KT 20/14 A3019 RMK A01 T02010143  RH  069%=      5-min Rain = 0
KQU1 141046Z 36004KT 20/14 A3019 RMK A01 T02010143  RH  069%=      5-min Rain = 0
KQU1 141047Z 35005KT 20/14 A3019 RMK A01 T02010143  RH  069%=      5-min Rain = 0
KQU1 141048Z 35007KT 20/14 A302 RMK A01 T02010142  RH  069%=      5-min Rain = 0
KQU1 141049Z 36005KT 20/14 A302 RMK A01 T02010142  RH  069%=      5-min Rain = 0
KQU1 141050Z 36006KT 20/14 A302 RMK A01 T02010143  RH  069%=      5-min Rain = 0
KQU1 141051Z 35005KT 20/14 A302 RMK A01 T02010143  RH  069%=      5-min Rain = 0
KQU1 141052Z 34007KT 20/14 A302 RMK A01 T02010143  RH  069%=      5-min Rain = 0
KQU1 141053Z 35006KT 20/14 A302 RMK A01 T02010143  RH  069%=      5-min Rain = 0
KQU1 141054Z 36007G12KT 20/14 A302 RMK A01 T02020143  RH  069%=      5-min Rain = 0
KQU1 141055Z 35006KT 20/14 A302 RMK A01 T02020144  RH  069%=      5-min Rain = 0
KQU1 141056Z 36006G11KT 20/14 A302 RMK A01 T02020144  RH  069%=      5-min Rain = 0
KQU1 141057Z 35008KT 20/14 A302 RMK A01 T02020144  RH  069%=      5-min Rain = 0
KQU1 141058Z 35007KT 20/14 A302 RMK A01 T02030144  RH  069%=      5-min Rain = 0
KQU1 141059Z 35006KT 20/15 A302 RMK A01 T02030145  RH  069%=      5-min Rain = 0
KQU1 141100Z 36006G11KT 20/15 A302 RMK A01 T02030146  RH  069%=      5-min Rain = 0
KQU1 141101Z 35005G10KT 20/15 A3021 RMK A01 T02040146  RH  069%=      5-min Rain = 0
KQU1 141102Z 35008KT 20/15 A3021 RMK A01 T02040145  RH  069%=      5-min Rain = 0
KQU1 141103Z 36008KT 20/14 A3021 RMK A01 T02040144  RH  068%=      5-min Rain = 0
KQU1 141104Z 35007KT 20/14 A3021 RMK A01 T02040144  RH  068%=      5-min Rain = 0
KQU1 141105Z 36009KT 21/14 A3021 RMK A01 T02050144  RH  068%=      5-min Rain = 0
KQU1 141106Z 35005KT 21/15 A3021 RMK A01 T02050145  RH  068%=      5-min Rain = 0
KQU1 141107Z 36008KT 21/14 A3021 RMK A01 T02050144  RH  068%=      5-min Rain = 0
KQU1 141108Z 35006KT 21/14 A3021 RMK A01 T02050144  RH  068%=      5-min Rain = 0
KQU1 141109Z 00007KT 21/15 A3021 RMK A01 T02050145  RH  068%=      5-min Rain = 0
KQU1 141110Z 36007KT 21/15 A302 RMK A01 T02050145  RH  068%=      5-min Rain = 0
KQU1 141111Z 36007KT 21/14 A302 RMK A01 T02050144  RH  068%=      5-min Rain = 0
KQU1 141112Z 35006KT 21/14 A302 RMK A01 T02050144  RH  068%=      5-min Rain = 0
KQU1 141113Z 36007KT 21/14 A302 RMK A01 T02050144  RH  068%=      5-min Rain = 0
KQU1 141114Z 00008KT 21/14 A302 RMK A01 T02050144  RH  068%=      5-min Rain = 0
KQU1 141115Z 35007KT 21/15 A302 RMK A01 T02050145  RH  068%=      5-min Rain = 0
KQU1 141116Z 00007KT 21/15 A302 RMK A01 T02050145  RH  068%=      5-min Rain = 0
KQU1 141117Z 36006KT 21/15 A302 RMK A01 T02050145  RH  068%=      5-min Rain = 0
KQU1 141118Z 01006KT 21/15 A302 RMK A01 T02050146  RH  068%=      5-min Rain = 0
KQU1 141119Z 35007KT 21/15 A302 RMK A01 T02050145  RH  068%=      5-min Rain = 0
KQU1 141120Z 35006KT 21/15 A302 RMK A01 T02050145  RH  068%=      5-min Rain = 0
KQU1 141121Z 36006KT 21/15 A302 RMK A01 T02050145  RH  068%=      5-min Rain = 0
KQU1 141122Z 00004G10KT 21/15 A302 RMK A01 T02050145  RH  069%=      5-min Rain = 0
KQU1 141123Z 35004G10KT 21/15 A302 RMK A01 T02050145  RH  068%=      5-min Rain = 0
KQU1 141124Z 36006KT 21/15 A302 RMK A01 T02050145  RH  068%=      5-min Rain = 0
KQU1 141125Z 36005KT 21/15 A302 RMK A01 T02050146  RH  069%=      5-min Rain = 0
KQU1 141126Z 01005KT 21/15 A302 RMK A01 T02050147  RH  069%=      5-min Rain = 0
KQU1 141127Z 35006KT 21/15 A302 RMK A01 T02050146  RH  069%=      5-min Rain = 0
KQU1 141128Z 35005KT 21/15 A302 RMK A01 T02050145  RH  069%=      5-min Rain = 0
KQU1 141129Z 35004KT 20/15 A302 RMK A01 T02040146  RH  069%=      5-min Rain = 0
KQU1 141130Z 35006KT 20/15 A302 RMK A01 T02040146  RH  069%=      5-min Rain = 0
KQU1 141131Z 36006KT 20/15 A302 RMK A01 T02040145  RH  069%=      5-min Rain = 0
KQU1 141132Z 36005KT 20/15 A302 RMK A01 T02040145  RH  069%=      5-min Rain = 0
KQU1 141133Z 36004KT 20/15 A302 RMK A01 T02040146  RH  069%=      5-min Rain = 0
KQU1 141134Z 35006KT 20/15 A302 RMK A01 T02040146  RH  069%=      5-min Rain = 0
KQU1 141135Z 35004KT 20/15 A302 RMK A01 T02040146  RH  069%=      5-min Rain = 0
KQU1 141136Z 36006KT 20/15 A302 RMK A01 T02040146  RH  069%=      5-min Rain = 0
KQU1 141137Z 36004KT 20/15 A302 RMK A01 T02030145  RH  069%=      5-min Rain = 0
KQU1 141138Z 35004KT 20/15 A302 RMK A01 T02030146  RH  069%=      5-min Rain = 0
KQU1 141139Z 34005KT 20/15 A302 RMK A01 T02030145  RH  069%=      5-min Rain = 0
KQU1 141140Z 35006KT 20/15 A302 RMK A01 T02030145  RH  070%=      5-min Rain = 0
KQU1 141141Z 35005KT 20/15 A3021 RMK A01 T02020145  RH  069%=      5-min Rain = 0
KQU1 141142Z 35007KT 20/15 A3021 RMK A01 T02020146  RH  070%=      5-min Rain = 0
KQU1 141143Z 36005KT 20/15 A3021 RMK A01 T02020146  RH  070%=      5-min Rain = 0
KQU1 141144Z 35004KT 20/15 A3021 RMK A01 T02020147  RH  070%=      5-min Rain = 0
KQU1 141145Z 00006KT 20/15 A3021 RMK A01 T02020147  RH  070%=      5-min Rain = 0
KQU1 141146Z 35003KT 20/15 A3021 RMK A01 T02020147  RH  070%=      5-min Rain = 0
KQU1 141147Z 36005KT 20/15 A3021 RMK A01 T02020146  RH  070%=      5-min Rain = 0
KQU1 141148Z 36006KT 20/15 A3021 RMK A01 T02020147  RH  071%=      5-min Rain = 0
KQU1 141149Z 35005KT 20/15 A3021 RMK A01 T02020147  RH  071%=      5-min Rain = 0
KQU1 141150Z 35003KT 20/15 A3021 RMK A01 T02010147  RH  071%=      5-min Rain = 0
KQU1 141151Z 36004KT 20/15 A3021 RMK A01 T02010148  RH  071%=      5-min Rain = 0
KQU1 141152Z 35003KT 20/15 A3021 RMK A01 T02010148  RH  071%=      5-min Rain = 0
KQU1 141153Z 36004KT 20/15 A3021 RMK A01 T02010148  RH  072%=      5-min Rain = 0
KQU1 141154Z 35004KT 20/15 A3021 RMK A01 T02010149  RH  072%=      5-min Rain = 0
KQU1 141155Z 35003KT 20/15 A3021 RMK A01 T02010149  RH  072%=      5-min Rain = 0
KQU1 141156Z 35005KT 20/15 A3021 RMK A01 T02010149  RH  072%=      5-min Rain = 0
KQU1 141157Z 35004KT 20/15 A3021 RMK A01 T02010149  RH  072%=      5-min Rain = 0
KQU1 141158Z 35005KT 20/15 A3021 RMK A01 T02010149  RH  072%=      5-min Rain = 0
KQU1 141159Z 35004KT 20/15 A3021 RMK A01 T02010149  RH  072%=      5-min Rain = 0
KQU1 141200Z 35004KT 20/15 A3021 RMK A01 T02010149  RH  072%=      5-min Rain = 0
KQU1 141201Z 35004KT 20/15 A3021 RMK A01 T02010150  RH  072%=      5-min Rain = 0
KQU1 141202Z 36003KT 20/15 A3021 RMK A01 T02010149  RH  072%=      5-min Rain = 0
KQU1 141203Z 35004KT 20/15 A3021 RMK A01 T02010150  RH  072%=      5-min Rain = 0
KQU1 141204Z 00004KT 20/15 A3021 RMK A01 T02010149  RH  072%=      5-min Rain = 0
KQU1 141205Z 35003KT 20/15 A3021 RMK A01 T02010149  RH  072%=      5-min Rain = 0
KQU1 141206Z 36003KT 20/15 A3021 RMK A01 T02000150  RH  073%=      5-min Rain = 0
KQU1 141207Z 36003KT 20/15 A3021 RMK A01 T02010150  RH  073%=      5-min Rain = 0
KQU1 141208Z 36005KT 20/15 A3021 RMK A01 T02010150  RH  073%=      5-min Rain = 0
KQU1 141209Z 36003KT 20/15 A3021 RMK A01 T02000150  RH  073%=      5-min Rain = 0
KQU1 141210Z 00004KT 20/15 A3021 RMK A01 T02000150  RH  073%=      5-min Rain = 0
KQU1 141211Z 35002KT 20/15 A3021 RMK A01 T02000150  RH  073%=      5-min Rain = 0
KQU1 141212Z 35003KT 20/15 A3021 RMK A01 T02000150  RH  073%=      5-min Rain = 0
KQU1 141213Z 35003KT 20/15 A3021 RMK A01 T02010150  RH  073%=      5-min Rain = 0
KQU1 141214Z 36003KT 20/15 A3021 RMK A01 T02010150  RH  072%=      5-min Rain = 0
KQU1 141215Z 35003KT 20/15 A3022 RMK A01 T02010151  RH  073%=      5-min Rain = 0
KQU1 141216Z 35003KT 20/15 A3022 RMK A01 T02010151  RH  073%=      5-min Rain = 0
KQU1 141217Z 34006KT 20/15 A3022 RMK A01 T02010151  RH  073%=      5-min Rain = 0
KQU1 141218Z 34006KT 20/15 A3022 RMK A01 T02010151  RH  073%=      5-min Rain = 0
KQU1 141219Z 34007KT 20/15 A3022 RMK A01 T02010151  RH  073%=      5-min Rain = 0
KQU1 141220Z 34007KT 20/15 A3022 RMK A01 T02020151  RH  073%=      5-min Rain = 0
KQU1 141221Z 34007KT 20/15 A3022 RMK A01 T02020151  RH  072%=      5-min Rain = 0
KQU1 141222Z 34006KT 20/15 A3022 RMK A01 T02020151  RH  072%=      5-min Rain = 0
KQU1 141223Z 34007KT 20/15 A3022 RMK A01 T02020151  RH  072%=      5-min Rain = 0
KQU1 141224Z 34007KT 20/15 A3022 RMK A01 T02030150  RH  072%=      5-min Rain = 0
KQU1 141225Z 33008KT 20/15 A3022 RMK A01 T02030150  RH  072%=      5-min Rain = 0
KQU1 141226Z 34008KT 20/15 A3022 RMK A01 T02030150  RH  072%=      5-min Rain = 0
KQU1 141227Z 34006KT 20/15 A3022 RMK A01 T02040151  RH  072%=      5-min Rain = 0
KQU1 141228Z 34006KT 20/15 A3022 RMK A01 T02040151  RH  072%=      5-min Rain = 0
KQU1 141229Z 34004KT 20/15 A3022 RMK A01 T02040151  RH  072%=      5-min Rain = 0
KQU1 141230Z 34006KT 20/15 A3022 RMK A01 T02040152  RH  072%=      5-min Rain = 0
KQU1 141231Z 33007KT 21/15 A3022 RMK A01 T02050152  RH  072%=      5-min Rain = 0
KQU1 141232Z 34006KT 21/15 A3022 RMK A01 T02050152  RH  071%=      5-min Rain = 0
KQU1 141233Z 33009KT 21/15 A3022 RMK A01 T02060152  RH  071%=      5-min Rain = 0
KQU1 141234Z 34008KT 21/15 A3022 RMK A01 T02060153  RH  071%=      5-min Rain = 0
KQU1 141235Z 34010KT 21/15 A3022 RMK A01 T02070152  RH  071%=      5-min Rain = 0
KQU1 141236Z 34007KT 21/15 A3022 RMK A01 T02070152  RH  071%=      5-min Rain = 0
KQU1 141237Z 33009KT 21/15 A3022 RMK A01 T02070152  RH  071%=      5-min Rain = 0
KQU1 141238Z 35007KT 21/15 A3022 RMK A01 T02070152  RH  070%=      5-min Rain = 0
KQU1 141239Z 00004KT 21/15 A3022 RMK A01 T02080153  RH  071%=      5-min Rain = 0
KQU1 141240Z 35003KT 21/15 A3022 RMK A01 T02080154  RH  071%=      5-min Rain = 0
KQU1 141241Z 34007KT 21/15 A3022 RMK A01 T02090154  RH  071%=      5-min Rain = 0
KQU1 141242Z 34008KT 21/15 A3022 RMK A01 T02090153  RH  070%=      5-min Rain = 0
KQU1 141243Z 35007KT 21/15 A3022 RMK A01 T02090153  RH  070%=      5-min Rain = 0
KQU1 141244Z 36007KT 21/15 A3022 RMK A01 T02100154  RH  071%=      5-min Rain = 0
KQU1 141245Z 35006KT 21/15 A3022 RMK A01 T02100154  RH  070%=      5-min Rain = 0
KQU1 141246Z 35005KT 21/15 A3022 RMK A01 T02100154  RH  070%=      5-min Rain = 0
KQU1 141247Z 34006KT 21/15 A3022 RMK A01 T02110154  RH  070%=      5-min Rain = 0
KQU1 141248Z 35007KT 21/15 A3022 RMK A01 T02110154  RH  070%=      5-min Rain = 0
KQU1 141249Z 35006KT 21/15 A3022 RMK A01 T02110154  RH  070%=      5-min Rain = 0
KQU1 141250Z 34006KT 21/16 A3022 RMK A01 T02110155  RH  070%=      5-min Rain = 0
KQU1 141251Z 34008KT 21/15 A3022 RMK A01 T02110154  RH  070%=      5-min Rain = 0
KQU1 141252Z 34009KT 21/15 A3021 RMK A01 T02110154  RH  070%=      5-min Rain = 0
KQU1 141253Z 35007KT 21/16 A3021 RMK A01 T02110155  RH  070%=      5-min Rain = 0
KQU1 141254Z 34006KT 21/15 A3021 RMK A01 T02120154  RH  070%=      5-min Rain = 0
KQU1 141255Z 35007KT 21/16 A3021 RMK A01 T02120155  RH  070%=      5-min Rain = 0
KQU1 141256Z 34009KT 21/15 A3021 RMK A01 T02120154  RH  069%=      5-min Rain = 0
KQU1 141257Z 34008KT 21/15 A3021 RMK A01 T02130154  RH  069%=      5-min Rain = 0
KQU1 141258Z 35008KT 21/15 A3021 RMK A01 T02130153  RH  069%=      5-min Rain = 0
KQU1 141259Z 34007KT 21/15 A3021 RMK A01 T02130154  RH  069%=      5-min Rain = 0
KQU1 141300Z 33007KT 21/15 A3021 RMK A01 T02130153  RH  068%=      5-min Rain = 0
KQU1 141301Z 33006KT 21/15 A3021 RMK A01 T02130153  RH  068%=      5-min Rain = 0
KQU1 141302Z 34005KT 21/15 A3021 RMK A01 T02130153  RH  069%=      5-min Rain = 0
KQU1 141303Z 33006KT 21/15 A3021 RMK A01 T02130153  RH  069%=      5-min Rain = 0
KQU1 141304Z 34005KT 21/15 A3021 RMK A01 T02120153  RH  069%=      5-min Rain = 0
KQU1 141305Z 33006KT 21/15 A3022 RMK A01 T02130154  RH  069%=      5-min Rain = 0
KQU1 141306Z 33007KT 21/15 A3022 RMK A01 T02130153  RH  069%=      5-min Rain = 0
KQU1 141307Z 33006KT 21/15 A3022 RMK A01 T02140154  RH  069%=      5-min Rain = 0
KQU1 141308Z 34008KT 21/15 A3022 RMK A01 T02140154  RH  069%=      5-min Rain = 0
KQU1 141309Z 34009KT 22/15 A3022 RMK A01 T02150154  RH  068%=      5-min Rain = 0
KQU1 141310Z 34007KT 22/15 A3022 RMK A01 T02150154  RH  068%=      5-min Rain = 0
KQU1 141311Z 35008KT 22/15 A3023 RMK A01 T02160153  RH  068%=      5-min Rain = 0
KQU1 141312Z 35005KT 22/15 A3022 RMK A01 T02160154  RH  068%=      5-min Rain = 0
KQU1 141313Z 34005KT 22/15 A3022 RMK A01 T02160154  RH  067%=      5-min Rain = 0
KQU1 141314Z 35004KT 22/15 A3022 RMK A01 T02170154  RH  067%=      5-min Rain = 0
KQU1 141315Z 34003KT 22/15 A3022 RMK A01 T02170153  RH  067%=      5-min Rain = 0
KQU1 141316Z 34004KT 22/15 A3022 RMK A01 T02170153  RH  067%=      5-min Rain = 0
KQU1 141317Z 34004KT 22/15 A3022 RMK A01 T02180154  RH  067%=      5-min Rain = 0
KQU1 141318Z 34006KT 22/15 A3022 RMK A01 T02180153  RH  067%=      5-min Rain = 0
KQU1 141319Z 35005KT 22/15 A3022 RMK A01 T02180154  RH  067%=      5-min Rain = 0
KQU1 141320Z 35004KT 22/16 A3022 RMK A01 T02180156  RH  068%=      5-min Rain = 0
KQU1 141321Z 34005KT 22/16 A3022 RMK A01 T02190156  RH  067%=      5-min Rain = 0
KQU1 141322Z 36006KT 22/16 A3022 RMK A01 T02190155  RH  067%=      5-min Rain = 0
KQU1 141323Z 35003KT 22/16 A3022 RMK A01 T02200156  RH  067%=      5-min Rain = 0
KQU1 141324Z 01001KT 22/16 A3022 RMK A01 T02210158  RH  067%=      5-min Rain = 0
KQU1 141325Z 01003KT 22/16 A3022 RMK A01 T02220156  RH  066%=      5-min Rain = 0
KQU1 141326Z 34003KT 22/16 A3022 RMK A01 T02230157  RH  066%=      5-min Rain = 0
KQU1 141327Z 35005KT 22/16 A3022 RMK A01 T02230157  RH  066%=      5-min Rain = 0
KQU1 141328Z 35006KT 22/16 A3023 RMK A01 T02240156  RH  066%=      5-min Rain = 0
KQU1 141329Z 34006KT 22/16 A3023 RMK A01 T02240157  RH  066%=      5-min Rain = 0
KQU1 141330Z 35007KT 23/16 A3023 RMK A01 T02250157  RH  065%=      5-min Rain = 0
KQU1 141331Z 36006KT 23/16 A3023 RMK A01 T02250156  RH  065%=      5-min Rain = 0
KQU1 141332Z 35007KT 23/16 A3023 RMK A01 T02250156  RH  065%=      5-min Rain = 0
KQU1 141333Z 35007KT 23/16 A3023 RMK A01 T02250156  RH  065%=      5-min Rain = 0
KQU1 141334Z 00007KT 23/16 A3023 RMK A01 T02250155  RH  064%=      5-min Rain = 0
KQU1 141335Z 36008KT 23/16 A3023 RMK A01 T02250155  RH  064%=      5-min Rain = 0
KQU1 141336Z 01007KT 23/16 A3023 RMK A01 T02250155  RH  064%=      5-min Rain = 0
KQU1 141337Z 35010G15KT 22/15 A3023 RMK A01 T02240153  RH  064%=      5-min Rain = 0
KQU1 141338Z 34008G13KT 22/15 A3023 RMK A01 T02230154  RH  065%=      5-min Rain = 0
KQU1 141339Z 35007KT 22/15 A3023 RMK A01 T02220154  RH  065%=      5-min Rain = 0
KQU1 141340Z 35006KT 22/15 A3023 RMK A01 T02210154  RH  066%=      5-min Rain = 0
KQU1 141341Z 34007G13KT 22/15 A3023 RMK A01 T02210154  RH  066%=      5-min Rain = 0
KQU1 141342Z 36005KT 22/15 A3023 RMK A01 T02210153  RH  066%=      5-min Rain = 0
KQU1 141343Z 35005G10KT 22/15 A3023 RMK A01 T02210154  RH  066%=      5-min Rain = 0
KQU1 141344Z 36007G12KT 22/16 A3023 RMK A01 T02210155  RH  066%=      5-min Rain = 0
KQU1 141345Z 35008KT 22/15 A3023 RMK A01 T02210154  RH  066%=      5-min Rain = 0
KQU1 141346Z 34007KT 22/15 A3023 RMK A01 T02210154  RH  066%=      5-min Rain = 0
KQU1 141347Z 36006G11KT 22/15 A3023 RMK A01 T02210154  RH  066%=      5-min Rain = 0
KQU1 141348Z 35007KT 22/15 A3023 RMK A01 T02210153  RH  065%=      5-min Rain = 0
KQU1 141349Z 35008KT 22/15 A3023 RMK A01 T02210153  RH  065%=      5-min Rain = 0
KQU1 141350Z 36005KT 22/15 A3023 RMK A01 T02210153  RH  065%=      5-min Rain = 0
KQU1 141351Z 34004KT 22/15 A3023 RMK A01 T02220154  RH  065%=      5-min Rain = 0
KQU1 141352Z 35004KT 22/15 A3023 RMK A01 T02220153  RH  065%=      5-min Rain = 0
KQU1 141353Z 35006G11KT 22/15 A3023 RMK A01 T02220152  RH  065%=      5-min Rain = 0
KQU1 141354Z 35005KT 22/15 A3023 RMK A01 T02220153  RH  065%=      5-min Rain = 0
KQU1 141355Z 35006KT 22/15 A3023 RMK A01 T02220152  RH  065%=      5-min Rain = 0
KQU1 141356Z 36005KT 22/15 A3023 RMK A01 T02210152  RH  065%=      5-min Rain = 0
KQU1 141357Z 35007KT 22/15 A3023 RMK A01 T02210151  RH  064%=      5-min Rain = 0
KQU1 141358Z 35006KT 22/15 A3023 RMK A01 T02210151  RH  065%=      5-min Rain = 0
KQU1 141359Z 35005KT 22/15 A3023 RMK A01 T02210151  RH  065%=      5-min Rain = 0
KQU1 141400Z 35005KT 22/15 A3023 RMK A01 T02200152  RH  065%=      5-min Rain = 0
KQU1 141401Z 35005G10KT 22/15 A3023 RMK A01 T02210152  RH  065%=      5-min Rain = 0
KQU1 141402Z 35005KT 22/15 A3023 RMK A01 T02210152  RH  065%=      5-min Rain = 0
KQU1 141403Z 35004KT 22/15 A3023 RMK A01 T02210153  RH  065%=      5-min Rain = 0
KQU1 141404Z 35003KT 22/15 A3023 RMK A01 T02220153  RH  065%=      5-min Rain = 0
KQU1 141405Z 35005KT 22/15 A3024 RMK A01 T02220153  RH  065%=      5-min Rain = 0
KQU1 141406Z 35007KT 22/15 A3024 RMK A01 T02220153  RH  065%=      5-min Rain = 0
KQU1 141407Z 35007KT 22/15 A3024 RMK A01 T02220153  RH  065%=      5-min Rain = 0
KQU1 141408Z 00006G11KT 22/15 A3024 RMK A01 T02220153  RH  065%=      5-min Rain = 0
KQU1 141409Z 36006KT 22/15 A3024 RMK A01 T02220153  RH  065%=      5-min Rain = 0
KQU1 141410Z 34007KT 22/15 A3024 RMK A01 T02220153  RH  065%=      5-min Rain = 0
KQU1 141411Z 34008KT 22/15 A3024 RMK A01 T02220151  RH  064%=      5-min Rain = 0
KQU1 141412Z 34007KT 22/15 A3024 RMK A01 T02220152  RH  065%=      5-min Rain = 0
KQU1 141413Z 35007KT 22/15 A3024 RMK A01 T02220153  RH  065%=      5-min Rain = 0
KQU1 141414Z 34005KT 22/15 A3024 RMK A01 T02220154  RH  065%=      5-min Rain = 0
KQU1 141415Z 35004KT 22/16 A3024 RMK A01 T02220155  RH  066%=      5-min Rain = 0
KQU1 141416Z 34007KT 22/16 A3024 RMK A01 T02230155  RH  065%=      5-min Rain = 0
KQU1 141417Z 34006KT 22/16 A3024 RMK A01 T02230155  RH  065%=      5-min Rain = 0
KQU1 141418Z 35005KT 22/16 A3024 RMK A01 T02240155  RH  065%=      5-min Rain = 0
KQU1 141419Z 34006KT 22/16 A3024 RMK A01 T02240155  RH  065%=      5-min Rain = 0
KQU1 141420Z 34006KT 23/15 A3024 RMK A01 T02250153  RH  064%=      5-min Rain = 0
KQU1 141421Z 34007KT 23/15 A3024 RMK A01 T02250153  RH  064%=      5-min Rain = 0
KQU1 141422Z 33006KT 23/15 A3024 RMK A01 T02250153  RH  064%=      5-min Rain = 0
KQU1 141423Z 33004KT 23/15 A3024 RMK A01 T02250154  RH  064%=      5-min Rain = 0
KQU1 141424Z 34004KT 23/15 A3024 RMK A01 T02260154  RH  064%=      5-min Rain = 0
KQU1 141425Z 33006KT 23/16 A3024 RMK A01 T02260155  RH  064%=      5-min Rain = 0
KQU1 141426Z 34006KT 23/15 A3024 RMK A01 T02260154  RH  063%=      5-min Rain = 0
KQU1 141427Z 33005KT 23/15 A3024 RMK A01 T02270153  RH  063%=      5-min Rain = 0
KQU1 141428Z 33005KT 23/15 A3024 RMK A01 T02270154  RH  063%=      5-min Rain = 0
KQU1 141429Z 34005KT 23/16 A3024 RMK A01 T02280156  RH  064%=      5-min Rain = 0
KQU1 141430Z 34005KT 23/16 A3024 RMK A01 T02280156  RH  064%=      5-min Rain = 0
KQU1 141431Z 32005KT 23/15 A3024 RMK A01 T02280154  RH  063%=      5-min Rain = 0
KQU1 141432Z 32004KT 23/15 A3024 RMK A01 T02290154  RH  063%=      5-min Rain = 0
KQU1 141433Z 33005KT 23/16 A3024 RMK A01 T02290155  RH  063%=      5-min Rain = 0
KQU1 141434Z 35004KT 23/16 A3024 RMK A01 T02300156  RH  063%=      5-min Rain = 0
KQU1 141435Z 33003KT 23/16 A3024 RMK A01 T02300156  RH  063%=      5-min Rain = 0
KQU1 141436Z 33004KT 23/16 A3024 RMK A01 T02310155  RH  062%=      5-min Rain = 0
KQU1 141437Z 33004KT 23/16 A3024 RMK A01 T02320157  RH  063%=      5-min Rain = 0
KQU1 141438Z 34006KT 23/16 A3024 RMK A01 T02340156  RH  062%=      5-min Rain = 0
KQU1 141439Z 34005KT 24/16 A3024 RMK A01 T02350157  RH  062%=      5-min Rain = 0
KQU1 141440Z 34005KT 24/16 A3024 RMK A01 T02350156  RH  061%=      5-min Rain = 0
KQU1 141441Z 35005KT 24/16 A3024 RMK A01 T02360157  RH  061%=      5-min Rain = 0
KQU1 141442Z 34005KT 24/16 A3024 RMK A01 T02380156  RH  060%=      5-min Rain = 0
KQU1 141443Z 34004KT 24/16 A3024 RMK A01 T02390155  RH  060%=      5-min Rain = 0
KQU1 141444Z 34003KT 24/16 A3024 RMK A01 T02410157  RH  060%=      5-min Rain = 0
KQU1 141445Z 01004KT 24/16 A3024 RMK A01 T02430158  RH  059%=      5-min Rain = 0
KQU1 141446Z 35003KT 25/16 A3024 RMK A01 T02450156  RH  058%=      5-min Rain = 0
KQU1 141447Z 35002KT 25/16 A3024 RMK A01 T02450155  RH  057%=      5-min Rain = 0
KQU1 141448Z 01002KT 25/16 A3023 RMK A01 T02470158  RH  057%=      5-min Rain = 0
KQU1 141449Z 35000KT 25/15 A3023 RMK A01 T02480154  RH  056%=      5-min Rain = 0
KQU1 141450Z 05002KT 25/16 A3023 RMK A01 T02480155  RH  056%=      5-min Rain = 0
KQU1 141451Z 04004KT 25/16 A3023 RMK A01 T02500157  RH  056%=      5-min Rain = 0
KQU1 141452Z 03005KT 25/16 A3023 RMK A01 T02520159  RH  056%=      5-min Rain = 0
KQU1 141453Z 03005KT 25/16 A3023 RMK A01 T02530157  RH  055%=      5-min Rain = 0
KQU1 141454Z 03003KT 25/16 A3023 RMK A01 T02520156  RH  055%=      5-min Rain = 0
KQU1 141455Z 04002KT 25/15 A3023 RMK A01 T02520154  RH  055%=      5-min Rain = 0
KQU1 141456Z 01002KT 25/16 A3023 RMK A01 T02520155  RH  055%=      5-min Rain = 0
KQU1 141457Z 00004KT 25/16 A3023 RMK A01 T02510157  RH  056%=      5-min Rain = 0
KQU1 141458Z 01005KT 25/16 A3023 RMK A01 T02510158  RH  056%=      5-min Rain = 0
KQU1 141459Z 01004KT 25/16 A3023 RMK A01 T02500156  RH  056%=      5-min Rain = 0
KQU1 141500Z 00003KT 25/16 A3023 RMK A01 T02480155  RH  056%=      5-min Rain = 0
KQU1 141501Z 00003KT 25/16 A3023 RMK A01 T02470156  RH  057%=      5-min Rain = 0
KQU1 141502Z 03002KT 25/16 A3023 RMK A01 T02470158  RH  058%=      5-min Rain = 0
KQU1 141503Z 02002KT 25/16 A3023 RMK A01 T02490160  RH  058%=      5-min Rain = 0
KQU1 141504Z 03005KT 25/16 A3023 RMK A01 T02500159  RH  057%=      5-min Rain = 0
KQU1 141505Z 02004KT 25/16 A3023 RMK A01 T02490158  RH  057%=      5-min Rain = 0
KQU1 141506Z 00003KT 25/16 A3023 RMK A01 T02490159  RH  057%=      5-min Rain = 0
KQU1 141507Z 01002KT 25/16 A3023 RMK A01 T02500158  RH  057%=      5-min Rain = 0
KQU1 141508Z 01001KT 25/16 A3023 RMK A01 T02500159  RH  057%=      5-min Rain = 0
KQU1 141509Z 01002KT 25/16 A3023 RMK A01 T02510157  RH  056%=      5-min Rain = 0
KQU1 141510Z 02001KT 25/16 A3023 RMK A01 T02510156  RH  055%=      5-min Rain = 0
KQU1 141511Z 04002KT 25/16 A3023 RMK A01 T02520157  RH  056%=      5-min Rain = 0
KQU1 141512Z 02004KT 25/16 A3023 RMK A01 T02510158  RH  056%=      5-min Rain = 0
KQU1 141513Z 04004KT 25/16 A3023 RMK A01 T02510158  RH  056%=      5-min Rain = 0
KQU1 141514Z 05004KT 25/16 A3023 RMK A01 T02500156  RH  056%=      5-min Rain = 0
KQU1 141515Z 03002KT 25/16 A3023 RMK A01 T02500157  RH  056%=      5-min Rain = 0
KQU1 141516Z 04002KT 25/16 A3022 RMK A01 T02500159  RH  057%=      5-min Rain = 0
KQU1 141517Z 04003KT 25/16 A3022 RMK A01 T02500158  RH  057%=      5-min Rain = 0
KQU1 141518Z 08003KT 25/16 A3022 RMK A01 T02500158  RH  057%=      5-min Rain = 0
KQU1 141519Z 08004KT 25/16 A3022 RMK A01 T02510159  RH  057%=      5-min Rain = 0
KQU1 141520Z 10005KT 25/16 A3022 RMK A01 T02520159  RH  056%=      5-min Rain = 0
KQU1 141521Z 09005KT 25/16 A3022 RMK A01 T02530158  RH  056%=      5-min Rain = 0
KQU1 141522Z 10003KT 25/16 A3022 RMK A01 T02530157  RH  055%=      5-min Rain = 0
KQU1 141523Z 12004KT 25/16 A3022 RMK A01 T02520156  RH  055%=      5-min Rain = 0
KQU1 141524Z 14004KT 25/16 A3022 RMK A01 T02510156  RH  055%=      5-min Rain = 0
KQU1 141525Z 13004KT 25/16 A3022 RMK A01 T02510157  RH  056%=      5-min Rain = 0
KQU1 141526Z 13004KT 25/16 A3022 RMK A01 T02510157  RH  056%=      5-min Rain = 0
KQU1 141527Z 12005KT 25/16 A3022 RMK A01 T02510158  RH  056%=      5-min Rain = 0
KQU1 141528Z 13005KT 25/16 A3022 RMK A01 T02510159  RH  057%=      5-min Rain = 0
KQU1 141529Z 10004KT 25/16 A3022 RMK A01 T02510158  RH  056%=      5-min Rain = 0
KQU1 141530Z 11007KT 25/16 A3022 RMK A01 T02520158  RH  056%=      5-min Rain = 0
KQU1 141531Z 11006KT 25/16 A3022 RMK A01 T02510158  RH  056%=      5-min Rain = 0
KQU1 141532Z 10005KT 25/16 A3022 RMK A01 T02510157  RH  056%=      5-min Rain = 0
KQU1 141533Z 10006KT 25/16 A3022 RMK A01 T02500159  RH  057%=      5-min Rain = 0
KQU1 141534Z 11008KT 25/16 A3022 RMK A01 T02500159  RH  057%=      5-min Rain = 0
KQU1 141535Z 12006KT 25/16 A3021 RMK A01 T02500158  RH  057%=      5-min Rain = 0
KQU1 141536Z 12006KT 25/16 A3021 RMK A01 T02500158  RH  057%=      5-min Rain = 0
KQU1 141537Z 12005KT 25/16 A3021 RMK A01 T02500158  RH  057%=      5-min Rain = 0
KQU1 141538Z 11004KT 25/16 A3021 RMK A01 T02500158  RH  057%=      5-min Rain = 0
KQU1 141539Z 12004KT 25/16 A3021 RMK A01 T02500157  RH  056%=      5-min Rain = 0
KQU1 141540Z 13005KT 25/16 A3021 RMK A01 T02500159  RH  057%=      5-min Rain = 0
KQU1 141541Z 11007KT 25/16 A3021 RMK A01 T02510159  RH  057%=      5-min Rain = 0
KQU1 141542Z 12005KT 25/16 A3021 RMK A01 T02510158  RH  057%=      5-min Rain = 0
KQU1 141543Z 13006KT 25/16 A3021 RMK A01 T02510159  RH  057%=      5-min Rain = 0
KQU1 141544Z 13007KT 25/16 A3021 RMK A01 T02510159  RH  057%=      5-min Rain = 0
KQU1 141545Z 13008KT 25/16 A3021 RMK A01 T02510159  RH  057%=      5-min Rain = 0
KQU1 141546Z 14007KT 25/16 A3021 RMK A01 T02510158  RH  056%=      5-min Rain = 0
KQU1 141547Z 14004KT 25/16 A3021 RMK A01 T02510160  RH  057%=      5-min Rain = 0
KQU1 141548Z 13003KT 25/16 A3021 RMK A01 T02520162  RH  057%=      5-min Rain = 0
KQU1 141549Z 12006KT 25/16 A3021 RMK A01 T02540163  RH  057%=      5-min Rain = 0
KQU1 141550Z 13004KT 26/16 A3021 RMK A01 T02550162  RH  056%=      5-min Rain = 0
KQU1 141551Z 13002KT 26/16 A3021 RMK A01 T02560162  RH  056%=      5-min Rain = 0
KQU1 141552Z 13003KT 26/16 A3021 RMK A01 T02560163  RH  056%=      5-min Rain = 0
KQU1 141553Z 15003KT 26/16 A3021 RMK A01 T02580164  RH  056%=      5-min Rain = 0
KQU1 141554Z 14005KT 26/16 A3021 RMK A01 T02580164  RH  056%=      5-min Rain = 0
KQU1 141555Z 11003KT 26/17 A3021 RMK A01 T02590166  RH  056%=      5-min Rain = 0
KQU1 141556Z 10004KT 26/17 A3021 RMK A01 T02600165  RH  056%=      5-min Rain = 0
KQU1 141557Z 10004KT 26/17 A3021 RMK A01 T02600167  RH  056%=      5-min Rain = 0
KQU1 141558Z 11004KT 26/17 A3021 RMK A01 T02600167  RH  056%=      5-min Rain = 0
KQU1 141559Z 13005KT 26/17 A3021 RMK A01 T02600166  RH  056%=      5-min Rain = 0
KQU1 141600Z 14004KT 26/17 A3021 RMK A01 T02600167  RH  057%=      5-min Rain = 0
KQU1 141601Z 14003KT 26/17 A3021 RMK A01 T02600168  RH  057%=      5-min Rain = 0
KQU1 141602Z 13004KT 26/17 A3021 RMK A01 T02600168  RH  057%=      5-min Rain = 0
KQU1 141603Z 13003KT 26/17 A3021 RMK A01 T02610168  RH  056%=      5-min Rain = 0
KQU1 141604Z 18003KT 26/17 A3021 RMK A01 T02610166  RH  056%=      5-min Rain = 0
KQU1 141605Z 21003KT 26/17 A3021 RMK A01 T02610165  RH  056%=      5-min Rain = 0
KQU1 141606Z 24004KT 26/16 A3021 RMK A01 T02590164  RH  056%=      5-min Rain = 0
KQU1 141607Z 25002KT 26/17 A3021 RMK A01 T02590165  RH  056%=      5-min Rain = 0
KQU1 141608Z 27003KT 26/16 A3021 RMK A01 T02590164  RH  056%=      5-min Rain = 0
KQU1 141609Z 24003KT 26/17 A3021 RMK A01 T02590165  RH  056%=      5-min Rain = 0
KQU1 141610Z 23003KT 26/17 A3021 RMK A01 T02610167  RH  056%=      5-min Rain = 0
KQU1 141611Z 21002KT 26/17 A3021 RMK A01 T02620165  RH  055%=      5-min Rain = 0
KQU1 141612Z 15003KT 26/17 A3021 RMK A01 T02630165  RH  055%=      5-min Rain = 0
KQU1 141613Z 14001KT 26/17 A3021 RMK A01 T02630166  RH  055%=      5-min Rain = 0
KQU1 141614Z 13000KT 26/17 A3021 RMK A01 T02640166  RH  055%=      5-min Rain = 0
KQU1 141615Z 02000KT 27/17 A3021 RMK A01 T02650167  RH  055%=      5-min Rain = 0
KQU1 141616Z 08002KT 27/17 A3021 RMK A01 T02670167  RH  054%=      5-min Rain = 0
KQU1 141617Z 06002KT 27/17 A3021 RMK A01 T02690166  RH  053%=      5-min Rain = 0
KQU1 141618Z 06003KT 27/17 A3021 RMK A01 T02700168  RH  054%=      5-min Rain = 0
KQU1 141619Z 08004KT 27/17 A3021 RMK A01 T02710166  RH  053%=      5-min Rain = 0
KQU1 141620Z 09004KT 27/17 A3021 RMK A01 T02700167  RH  053%=      5-min Rain = 0
KQU1 141621Z 10004KT 27/17 A3021 RMK A01 T02700168  RH  054%=      5-min Rain = 0
KQU1 141622Z 11004KT 27/17 A3021 RMK A01 T02700168  RH  053%=      5-min Rain = 0
KQU1 141623Z 08002KT 27/17 A302 RMK A01 T02700168  RH  053%=      5-min Rain = 0
KQU1 141624Z 09002KT 27/17 A302 RMK A01 T02710166  RH  053%=      5-min Rain = 0
KQU1 141625Z 22003KT 27/17 A302 RMK A01 T02700166  RH  053%=      5-min Rain = 0
KQU1 141626Z 23003KT 27/17 A302 RMK A01 T02690165  RH  053%=      5-min Rain = 0
KQU1 141627Z 21002KT 27/17 A302 RMK A01 T02680166  RH  054%=      5-min Rain = 0
KQU1 141628Z 22001KT 27/17 A302 RMK A01 T02680167  RH  054%=      5-min Rain = 0
KQU1 141629Z 05002KT 27/17 A302 RMK A01 T02700170  RH  054%=      5-min Rain = 0
KQU1 141630Z 07004KT 27/17 A302 RMK A01 T02730171  RH  054%=      5-min Rain = 0
KQU1 141631Z 10004KT 27/17 A302 RMK A01 T02740170  RH  053%=      5-min Rain = 0
KQU1 141632Z 11005KT 28/17 A302 RMK A01 T02760172  RH  053%=      5-min Rain = 0
KQU1 141633Z 13005KT 28/17 A302 RMK A01 T02770170  RH  052%=      5-min Rain = 0
KQU1 141634Z 16006KT 28/17 A302 RMK A01 T02770169  RH  052%=      5-min Rain = 0
KQU1 141635Z 16004KT 28/17 A3019 RMK A01 T02770171  RH  052%=      5-min Rain = 0
KQU1 141636Z 15005KT 28/17 A3019 RMK A01 T02780169  RH  052%=      5-min Rain = 0
KQU1 141637Z 13004KT 28/17 A3019 RMK A01 T02770170  RH  052%=      5-min Rain = 0
KQU1 141638Z 15001KT 28/17 A3019 RMK A01 T02780168  RH  051%=      5-min Rain = 0
KQU1 141639Z 17001KT 28/17 A3019 RMK A01 T02770167  RH  051%=      5-min Rain = 0
KQU1 141640Z 12001KT 28/17 A302 RMK A01 T02760168  RH  052%=      5-min Rain = 0
KQU1 141641Z 27000KT 28/17 A302 RMK A01 T02770168  RH  051%=      5-min Rain = 0
KQU1 141642Z 27000KT 28/17 A302 RMK A01 T02780168  RH  051%=      5-min Rain = 0
KQU1 141643Z 31000KT 28/17 A302 RMK A01 T02790169  RH  051%=      5-min Rain = 0
KQU1 141644Z 00000KT 28/17 A302 RMK A01 T02810169  RH  051%=      5-min Rain = 0
KQU1 141645Z 06000KT 28/17 A302 RMK A01 T02820166  RH  049%=      5-min Rain = 0
KQU1 141646Z 00001KT 28/17 A3021 RMK A01 T02830167  RH  049%=      5-min Rain = 0
KQU1 141647Z 02005KT 28/17 A3021 RMK A01 T02820167  RH  050%=      5-min Rain = 0
KQU1 141648Z 00004KT 28/17 A3021 RMK A01 T02790166  RH  050%=      5-min Rain = 0
KQU1 141649Z 35003KT 28/16 A3021 RMK A01 T02750163  RH  051%=      5-min Rain = 0
KQU1 141650Z 34003KT 27/17 A3021 RMK A01 T02720165  RH  052%=      5-min Rain = 0
KQU1 141651Z 36002KT 27/17 A3021 RMK A01 T02730168  RH  053%=      5-min Rain = 0
KQU1 141652Z 34002KT 28/17 A302 RMK A01 T02750166  RH  052%=      5-min Rain = 0
KQU1 141653Z 00002KT 28/17 A302 RMK A01 T02750166  RH  052%=      5-min Rain = 0
KQU1 141654Z 34003KT 28/17 A302 RMK A01 T02750167  RH  052%=      5-min Rain = 0
KQU1 141655Z 34005KT 28/17 A302 RMK A01 T02760169  RH  052%=      5-min Rain = 0
KQU1 141656Z 35007KT 28/17 A302 RMK A01 T02760168  RH  052%=      5-min Rain = 0
KQU1 141657Z 34007KT 28/17 A302 RMK A01 T02750167  RH  052%=      5-min Rain = 0
KQU1 141658Z 35004KT 28/17 A302 RMK A01 T02750165  RH  051%=      5-min Rain = 0
KQU1 141659Z 36003KT 28/17 A302 RMK A01 T02760168  RH  052%=      5-min Rain = 0
KQU1 141700Z 00003KT 28/17 A302 RMK A01 T02780167  RH  051%=      5-min Rain = 0
KQU1 141701Z 34004KT 28/17 A3019 RMK A01 T02780167  RH  051%=      5-min Rain = 0
KQU1 141702Z 34005KT 28/17 A3019 RMK A01 T02800170  RH  051%=      5-min Rain = 0
KQU1 141703Z 34004KT 28/17 A3019 RMK A01 T02810169  RH  050%=      5-min Rain = 0
KQU1 141704Z 01005KT 28/17 A3019 RMK A01 T02820166  RH  049%=      5-min Rain = 0
KQU1 141705Z 02004KT 28/17 A3019 RMK A01 T02820165  RH  049%=      5-min Rain = 0
KQU1 141706Z 01004KT 28/17 A3019 RMK A01 T02830168  RH  050%=      5-min Rain = 0
KQU1 141707Z 34008KT 28/17 A3019 RMK A01 T02820167  RH  050%=      5-min Rain = 0
KQU1 141708Z 33006KT 28/17 A3019 RMK A01 T02800166  RH  050%=      5-min Rain = 0
KQU1 141709Z 34008KT 28/17 A302 RMK A01 T02800166  RH  050%=      5-min Rain = 0
KQU1 141710Z 35005KT 28/17 A3019 RMK A01 T02800166  RH  050%=      5-min Rain = 0
KQU1 141711Z 03003KT 28/17 A3019 RMK A01 T02830171  RH  051%=      5-min Rain = 0
KQU1 141712Z 03003KT 29/16 A3019 RMK A01 T02860164  RH  048%=      5-min Rain = 0
KQU1 141713Z 33005KT 29/17 A3019 RMK A01 T02870168  RH  048%=      5-min Rain = 0
KQU1 141714Z 33005KT 29/16 A3019 RMK A01 T02880162  RH  047%=      5-min Rain = 0
KQU1 141715Z 36002KT 29/16 A3019 RMK A01 T02880162  RH  046%=      5-min Rain = 0
KQU1 141716Z 00005KT 29/16 A3019 RMK A01 T02880163  RH  047%=      5-min Rain = 0
KQU1 141717Z 35007G12KT 29/16 A3019 RMK A01 T02880158  RH  045%=      5-min Rain = 0
KQU1 141718Z 35009KT 29/16 A3019 RMK A01 T02880160  RH  046%=      5-min Rain = 0
KQU1 141719Z 34008KT 29/16 A3019 RMK A01 T02890160  RH  046%=      5-min Rain = 0
KQU1 141720Z 01004KT 29/16 A3019 RMK A01 T02890160  RH  046%=      5-min Rain = 0
KQU1 141721Z 34007KT 29/16 A3019 RMK A01 T02900159  RH  045%=      5-min Rain = 0
KQU1 141722Z 36006KT 29/16 A3019 RMK A01 T02890160  RH  045%=      5-min Rain = 0
KQU1 141723Z 36007G15KT 29/16 A3019 RMK A01 T02900160  RH  045%=      5-min Rain = 0
KQU1 141724Z 01008KT 29/15 A3019 RMK A01 T02910153  RH  043%=      5-min Rain = 0
KQU1 141725Z 35002KT 29/16 A3019 RMK A01 T02910156  RH  044%=      5-min Rain = 0
KQU1 141726Z 35003KT 29/15 A3019 RMK A01 T02940154  RH  043%=      5-min Rain = 0
KQU1 141727Z 36004KT 29/15 A3019 RMK A01 T02940153  RH  042%=      5-min Rain = 0
KQU1 141728Z 02004KT 30/15 A3019 RMK A01 T02950152  RH  042%=      5-min Rain = 0
KQU1 141729Z 01007KT 30/15 A3019 RMK A01 T02950154  RH  042%=      5-min Rain = 0
KQU1 141730Z 35007G13KT 30/15 A3019 RMK A01 T02950151  RH  041%=      5-min Rain = 0
KQU1 141731Z 01006KT 30/15 A3019 RMK A01 T02960148  RH  040%=      5-min Rain = 0
KQU1 141732Z 35005KT 30/15 A3019 RMK A01 T02960149  RH  041%=      5-min Rain = 0
KQU1 141733Z 35006KT 30/15 A3019 RMK A01 T02960150  RH  041%=      5-min Rain = 0
KQU1 141734Z 01002KT 30/15 A3019 RMK A01 T02960153  RH  042%=      5-min Rain = 0
KQU1 141735Z 02006KT 30/15 A3019 RMK A01 T02980152  RH  041%=      5-min Rain = 0
KQU1 141736Z 01006G11KT 30/15 A3019 RMK A01 T02980150  RH  041%=      5-min Rain = 0
KQU1 141737Z 00009G15KT 30/14 A3019 RMK A01 T02970142  RH  039%=      5-min Rain = 0
KQU1 141738Z 35009KT 30/15 A3019 RMK A01 T02960145  RH  040%=      5-min Rain = 0
KQU1 141739Z 35010KT 30/15 A3019 RMK A01 T02960145  RH  040%=      5-min Rain = 0
KQU1 141740Z 35011KT 30/15 A3019 RMK A01 T02950145  RH  040%=      5-min Rain = 0
KQU1 141741Z 00009KT 30/15 A3019 RMK A01 T02950146  RH  040%=      5-min Rain = 0
KQU1 141742Z 36005KT 30/15 A3019 RMK A01 T02950146  RH  040%=      5-min Rain = 0
KQU1 141743Z 05010KT 30/15 A3019 RMK A01 T02970148  RH  040%=      5-min Rain = 0
KQU1 141744Z 04011KT 30/14 A3018 RMK A01 T02960143  RH  039%=      5-min Rain = 0
KQU1 141745Z 03009G14KT 30/15 A3018 RMK A01 T02960148  RH  041%=      5-min Rain = 0
KQU1 141746Z 03013KT 30/15 A3019 RMK A01 T02950148  RH  041%=      5-min Rain = 0
KQU1 141747Z 03013KT 29/15 A3019 RMK A01 T02930147  RH  041%=      5-min Rain = 0
KQU1 141748Z 04010KT 29/15 A3019 RMK A01 T02920148  RH  042%=      5-min Rain = 0
KQU1 141749Z 03007KT 29/15 A3019 RMK A01 T02910146  RH  041%=      5-min Rain = 0
KQU1 141750Z 05007KT 29/15 A3018 RMK A01 T02920148  RH  041%=      5-min Rain = 0
KQU1 141751Z 02007KT 29/15 A3018 RMK A01 T02930150  RH  042%=      5-min Rain = 0
KQU1 141752Z 02008KT 29/15 A3018 RMK A01 T02940148  RH  041%=      5-min Rain = 0
KQU1 141753Z 03010KT 29/14 A3018 RMK A01 T02940142  RH  040%=      5-min Rain = 0
KQU1 141754Z 01007G14KT 29/15 A3018 RMK A01 T02940146  RH  040%=      5-min Rain = 0
KQU1 141755Z 35010KT 30/14 A3018 RMK A01 T02970144  RH  039%=      5-min Rain = 0
KQU1 141756Z 02007G16KT 30/14 A3018 RMK A01 T02980142  RH  039%=      5-min Rain = 0
KQU1 141757Z 02003KT 30/15 A3018 RMK A01 T02990145  RH  039%=      5-min Rain = 0
KQU1 141758Z 00005KT 30/15 A3018 RMK A01 T03010146  RH  039%=      5-min Rain = 0
KQU1 141759Z 35004KT 30/15 A3018 RMK A01 T03020146  RH  039%=      5-min Rain = 0
KQU1 141800Z 34004KT 30/14 A3018 RMK A01 T03030143  RH  038%=      5-min Rain = 0
KQU1 141801Z 34009G14KT 30/14 A3018 RMK A01 T03020143  RH  038%=      5-min Rain = 0
KQU1 141802Z 34009KT 30/14 A3018 RMK A01 T03010139  RH  037%=      5-min Rain = 0
KQU1 141803Z 35007G13KT 30/14 A3018 RMK A01 T03010142  RH  038%=      5-min Rain = 0
KQU1 141804Z 02005G10KT 30/14 A3018 RMK A01 T03000141  RH  038%=      5-min Rain = 0
KQU1 141805Z 05009G14KT 30/14 A3018 RMK A01 T03010138  RH  037%=      5-min Rain = 0
KQU1 141806Z 03013KT 30/14 A3018 RMK A01 T03000138  RH  037%=      5-min Rain = 0
KQU1 141807Z 02010G15KT 30/14 A3018 RMK A01 T02980138  RH  038%=      5-min Rain = 0
KQU1 141808Z 03011KT 30/14 A3018 RMK A01 T02960143  RH  039%=      5-min Rain = 0
KQU1 141809Z 05011KT 30/14 A3018 RMK A01 T02960142  RH  039%=      5-min Rain = 0
KQU1 141810Z 06008KT 30/14 A3018 RMK A01 T02960139  RH  038%=      5-min Rain = 0
KQU1 141811Z 04005KT 30/14 A3018 RMK A01 T02980141  RH  038%=      5-min Rain = 0
KQU1 141812Z 02003KT 30/14 A3018 RMK A01 T03000139  RH  037%=      5-min Rain = 0
KQU1 141813Z 01004KT 30/15 A3018 RMK A01 T03000145  RH  039%=      5-min Rain = 0
KQU1 141814Z 02005G11KT 30/14 A3018 RMK A01 T03010141  RH  038%=      5-min Rain = 0
KQU1 141815Z 03008KT 30/14 A3018 RMK A01 T03010138  RH  037%=      5-min Rain = 0
KQU1 141816Z 03006KT 30/14 A3018 RMK A01 T03010139  RH  037%=      5-min Rain = 0
KQU1 141817Z 34003G9KT 30/14 A3018 RMK A01 T03010144  RH  038%=      5-min Rain = 0
KQU1 141818Z 01008G13KT 30/14 A3018 RMK A01 T03010142  RH  038%=      5-min Rain = 0
KQU1 141819Z 01006KT 30/14 A3018 RMK A01 T03020143  RH  038%=      5-min Rain = 0
KQU1 141820Z 36005KT 30/14 A3018 RMK A01 T03030141  RH  037%=      5-min Rain = 0
KQU1 141821Z 03006KT 30/15 A3018 RMK A01 T03030145  RH  038%=      5-min Rain = 0
KQU1 141822Z 01009G15KT 30/15 A3018 RMK A01 T03030147  RH  039%=      5-min Rain = 0
KQU1 141823Z 34013KT 30/14 A3018 RMK A01 T03020140  RH  037%=      5-min Rain = 0
KQU1 141824Z 33012KT 30/14 A3018 RMK A01 T03000137  RH  037%=      5-min Rain = 0
KQU1 141825Z 00007G13KT 30/14 A3018 RMK A01 T03000143  RH  038%=      5-min Rain = 0
KQU1 141826Z 04008KT 30/15 A3018 RMK A01 T03020145  RH  038%=      5-min Rain = 0
KQU1 141827Z 04006KT 30/14 A3018 RMK A01 T03030144  RH  038%=      5-min Rain = 0
KQU1 141828Z 04007KT 30/14 A3018 RMK A01 T03030144  RH  038%=      5-min Rain = 0
KQU1 141829Z 02008G14KT 30/15 A3018 RMK A01 T03020147  RH  039%=      5-min Rain = 0
KQU1 141830Z 03012KT 30/15 A3018 RMK A01 T03020146  RH  039%=      5-min Rain = 0
KQU1 141831Z 03011KT 30/14 A3018 RMK A01 T03000143  RH  038%=      5-min Rain = 0
KQU1 141832Z 01010KT 30/15 A3018 RMK A01 T03000145  RH  039%=      5-min Rain = 0
KQU1 141833Z 32007KT 30/14 A3018 RMK A01 T02990139  RH  038%=      5-min Rain = 0
KQU1 141834Z 33009KT 30/14 A3018 RMK A01 T03000141  RH  038%=      5-min Rain = 0
KQU1 141835Z 35008KT 30/14 A3018 RMK A01 T03000142  RH  038%=      5-min Rain = 0
KQU1 141836Z 35007KT 30/14 A3018 RMK A01 T03000141  RH  038%=      5-min Rain = 0
KQU1 141837Z 35007KT 30/14 A3018 RMK A01 T03000139  RH  037%=      5-min Rain = 0
KQU1 141838Z 33009KT 30/14 A3018 RMK A01 T03010140  RH  037%=      5-min Rain = 0
KQU1 141839Z 34009KT 30/14 A3018 RMK A01 T03020137  RH  036%=      5-min Rain = 0
KQU1 141840Z 04008KT 30/14 A3018 RMK A01 T03040140  RH  037%=      5-min Rain = 0
KQU1 141841Z 04008KT 30/14 A3018 RMK A01 T03040135  RH  036%=      5-min Rain = 0
KQU1 141842Z 04008KT 30/14 A3018 RMK A01 T03030137  RH  036%=      5-min Rain = 0
KQU1 141843Z 03006KT 30/14 A3018 RMK A01 T03030141  RH  037%=      5-min Rain = 0
KQU1 141844Z 02007G14KT 30/14 A3018 RMK A01 T03030139  RH  037%=      5-min Rain = 0
KQU1 141845Z 01010G16KT 30/13 A3018 RMK A01 T03020133  RH  036%=      5-min Rain = 0
KQU1 141846Z 00010KT 30/13 A3018 RMK A01 T03020133  RH  036%=      5-min Rain = 0
KQU1 141847Z 01007G12KT 30/13 A3018 RMK A01 T03020133  RH  036%=      5-min Rain = 0
KQU1 141848Z 02006G11KT 30/13 A3018 RMK A01 T03020132  RH  035%=      5-min Rain = 0
KQU1 141849Z 03010G16KT 30/13 A3017 RMK A01 T03010134  RH  036%=      5-min Rain = 0
KQU1 141850Z 01006KT 30/13 A3017 RMK A01 T03000132  RH  036%=      5-min Rain = 0
KQU1 141851Z 35003KT 30/13 A3017 RMK A01 T03010133  RH  036%=      5-min Rain = 0
KQU1 141852Z 34006KT 30/13 A3017 RMK A01 T03020131  RH  035%=      5-min Rain = 0
KQU1 141853Z 33007KT 30/14 A3017 RMK A01 T03040135  RH  036%=      5-min Rain = 0
KQU1 141854Z 00005KT 31/14 A3017 RMK A01 T03060137  RH  035%=      5-min Rain = 0
KQU1 141855Z 35004KT 31/14 A3017 RMK A01 T03070137  RH  035%=      5-min Rain = 0
KQU1 141856Z 00004KT 31/14 A3017 RMK A01 T03080138  RH  035%=      5-min Rain = 0
KQU1 141857Z 01006KT 31/14 A3017 RMK A01 T03080137  RH  035%=      5-min Rain = 0
KQU1 141858Z 02008KT 31/14 A3017 RMK A01 T03070137  RH  035%=      5-min Rain = 0
KQU1 141859Z 03006KT 31/14 A3017 RMK A01 T03060137  RH  036%=      5-min Rain = 0
KQU1 141900Z 05008KT 31/14 A3017 RMK A01 T03060136  RH  036%=      5-min Rain = 0
KQU1 141901Z 06008KT 31/13 A3017 RMK A01 T03060131  RH  034%=      5-min Rain = 0
KQU1 141902Z 08007KT 31/13 A3017 RMK A01 T03060128  RH  034%=      5-min Rain = 0
KQU1 141903Z 05008KT 31/13 A3017 RMK A01 T03060128  RH  034%=      5-min Rain = 0
KQU1 141904Z 02007KT 31/13 A3017 RMK A01 T03050129  RH  034%=      5-min Rain = 0
KQU1 141905Z 03004KT 30/13 A3017 RMK A01 T03040126  RH  034%=      5-min Rain = 0
KQU1 141906Z 04003KT 30/13 A3017 RMK A01 T03040126  RH  034%=      5-min Rain = 0
KQU1 141907Z 03001KT 30/13 A3017 RMK A01 T03040125  RH  033%=      5-min Rain = 0
KQU1 141908Z 18000KT 30/13 A3017 RMK A01 T03040127  RH  034%=      5-min Rain = 0
KQU1 141909Z 19001KT 31/13 A3016 RMK A01 T03060127  RH  034%=      5-min Rain = 0
KQU1 141910Z 33002KT 31/13 A3016 RMK A01 T03060127  RH  033%=      5-min Rain = 0
KQU1 141911Z 32001KT 31/13 A3016 RMK A01 T03070131  RH  034%=      5-min Rain = 0
KQU1 141912Z 06001KT 31/13 A3016 RMK A01 T03100130  RH  033%=      5-min Rain = 0
KQU1 141913Z 05002KT 31/13 A3016 RMK A01 T03120130  RH  033%=      5-min Rain = 0
KQU1 141914Z 00002KT 31/13 A3016 RMK A01 T03120132  RH  033%=      5-min Rain = 0
KQU1 141915Z 03003KT 31/13 A3016 RMK A01 T03130129  RH  033%=      5-min Rain = 0
KQU1 141916Z 04005G10KT 31/13 A3016 RMK A01 T03130131  RH  033%=      5-min Rain = 0
KQU1 141917Z 05007KT 31/13 A3016 RMK A01 T03130132  RH  033%=      5-min Rain = 0
KQU1 141918Z 05004KT 31/13 A3016 RMK A01 T03140133  RH  033%=      5-min Rain = 0
KQU1 141919Z 06004KT 32/13 A3016 RMK A01 T03160131  RH  032%=      5-min Rain = 0
KQU1 141920Z 08003KT 32/13 A3016 RMK A01 T03150131  RH  033%=      5-min Rain = 0
KQU1 141921Z 03004KT 31/13 A3015 RMK A01 T03140134  RH  033%=      5-min Rain = 0
KQU1 141922Z 02004KT 31/13 A3015 RMK A01 T03140134  RH  033%=      5-min Rain = 0
KQU1 141923Z 35004KT 31/13 A3015 RMK A01 T03130133  RH  033%=      5-min Rain = 0
KQU1 141924Z 33003KT 31/13 A3015 RMK A01 T03120132  RH  033%=      5-min Rain = 0
KQU1 141925Z 34002KT 31/13 A3015 RMK A01 T03120133  RH  033%=      5-min Rain = 0
KQU1 141926Z 06003KT 31/14 A3015 RMK A01 T03140135  RH  034%=      5-min Rain = 0
KQU1 141927Z 09008KT 32/14 A3015 RMK A01 T03160136  RH  033%=      5-min Rain = 0
KQU1 141928Z 07008KT 32/14 A3015 RMK A01 T03190135  RH  033%=      5-min Rain = 0
KQU1 141929Z 08008KT 32/13 A3015 RMK A01 T03200134  RH  032%=      5-min Rain = 0
KQU1 141930Z 07010KT 32/13 A3015 RMK A01 T03190132  RH  032%=      5-min Rain = 0
KQU1 141931Z 08007KT 32/13 A3014 RMK A01 T03180133  RH  032%=      5-min Rain = 0
KQU1 141932Z 09008KT 32/13 A3014 RMK A01 T03190133  RH  032%=      5-min Rain = 0
KQU1 141933Z 08009KT 32/13 A3014 RMK A01 T03200133  RH  032%=      5-min Rain = 0
KQU1 141934Z 09006KT 32/13 A3014 RMK A01 T03190128  RH  031%=      5-min Rain = 0
KQU1 141935Z 11003KT 32/13 A3014 RMK A01 T03170130  RH  032%=      5-min Rain = 0
KQU1 141936Z 13001KT 32/13 A3014 RMK A01 T03160129  RH  032%=      5-min Rain = 0
KQU1 141937Z 09001KT 32/13 A3014 RMK A01 T03150129  RH  032%=      5-min Rain = 0
KQU1 141938Z 08007KT 32/14 A3014 RMK A01 T03170135  RH  033%=      5-min Rain = 0
KQU1 141939Z 08008KT 32/14 A3014 RMK A01 T03190135  RH  033%=      5-min Rain = 0
KQU1 141940Z 09006KT 32/13 A3014 RMK A01 T03200130  RH  031%=      5-min Rain = 0
KQU1 141941Z 11005KT 32/13 A3014 RMK A01 T03200134  RH  032%=      5-min Rain = 0
KQU1 141942Z 09006KT 32/14 A3014 RMK A01 T03200137  RH  033%=      5-min Rain = 0
KQU1 141943Z 09005KT 32/14 A3014 RMK A01 T03220140  RH  033%=      5-min Rain = 0
KQU1 141944Z 08005KT 33/14 A3013 RMK A01 T03250137  RH  032%=      5-min Rain = 0
KQU1 141945Z 07004KT 32/14 A3013 RMK A01 T03240135  RH  032%=      5-min Rain = 0
KQU1 141946Z 09005KT 32/14 A3013 RMK A01 T03230138  RH  032%=      5-min Rain = 0
KQU1 141947Z 12004KT 32/14 A3013 RMK A01 T03240138  RH  032%=      5-min Rain = 0
KQU1 141948Z 12005KT 32/14 A3013 RMK A01 T03240135  RH  032%=      5-min Rain = 0
KQU1 141949Z 15005KT 32/14 A3013 RMK A01 T03230137  RH  032%=      5-min Rain = 0
KQU1 141950Z 15003KT 32/14 A3013 RMK A01 T03210136  RH  033%=      5-min Rain = 0
KQU1 141951Z 08006KT 32/14 A3013 RMK A01 T03200139  RH  033%=      5-min Rain = 0
KQU1 141952Z 16007KT 32/14 A3013 RMK A01 T03210139  RH  033%=      5-min Rain = 0
KQU1 141953Z 17008G13KT 32/14 A3013 RMK A01 T03210138  RH  033%=      5-min Rain = 0
KQU1 141954Z 15007KT 32/14 A3013 RMK A01 T03180139  RH  034%=      5-min Rain = 0
KQU1 141955Z 17004KT 32/14 A3014 RMK A01 T03190140  RH  034%=      5-min Rain = 0
KQU1 141956Z 11005KT 32/14 A3014 RMK A01 T03210141  RH  034%=      5-min Rain = 0
KQU1 141957Z 12007KT 32/14 A3014 RMK A01 T03220139  RH  033%=      5-min Rain = 0
KQU1 141958Z 09008KT 32/14 A3014 RMK A01 T03220137  RH  033%=      5-min Rain = 0
KQU1 141959Z 10010KT 32/14 A3014 RMK A01 T03230136  RH  032%=      5-min Rain = 0
KQU1 142000Z 09008KT 32/13 A3014 RMK A01 T03230134  RH  032%=      5-min Rain = 0
KQU1 142001Z 09007KT 32/13 A3014 RMK A01 T03220131  RH  031%=      5-min Rain = 0
KQU1 142002Z 10001KT 32/13 A3013 RMK A01 T03210132  RH  032%=      5-min Rain = 0
KQU1 142003Z 11003KT 32/14 A3013 RMK A01 T03210136  RH  033%=      5-min Rain = 0
KQU1 142004Z 09003KT 32/13 A3013 RMK A01 T03230133  RH  032%=      5-min Rain = 0
KQU1 142005Z 15005KT 32/14 A3013 RMK A01 T03240137  RH  032%=      5-min Rain = 0
KQU1 142006Z 15002KT 32/14 A3013 RMK A01 T03240137  RH  032%=      5-min Rain = 0
KQU1 142007Z 11005KT 33/14 A3013 RMK A01 T03260140  RH  032%=      5-min Rain = 0
KQU1 142008Z 10007KT 33/14 A3013 RMK A01 T03270135  RH  031%=      5-min Rain = 0
KQU1 142009Z 07003KT 33/13 A3013 RMK A01 T03250133  RH  031%=      5-min Rain = 0
KQU1 142010Z 08008KT 32/14 A3013 RMK A01 T03240136  RH  032%=      5-min Rain = 0
KQU1 142011Z 06005KT 32/13 A3013 RMK A01 T03240134  RH  032%=      5-min Rain = 0
KQU1 142012Z 06003KT 32/14 A3013 RMK A01 T03240135  RH  032%=      5-min Rain = 0
KQU1 142013Z 03004KT 33/14 A3013 RMK A01 T03250137  RH  032%=      5-min Rain = 0
KQU1 142014Z 05004KT 33/14 A3013 RMK A01 T03260136  RH  032%=      5-min Rain = 0
KQU1 142015Z 10006KT 33/14 A3013 RMK A01 T03260135  RH  031%=      5-min Rain = 0
KQU1 142016Z 09004KT 33/13 A3013 RMK A01 T03260134  RH  031%=      5-min Rain = 0
KQU1 142017Z 11006KT 33/13 A3013 RMK A01 T03250134  RH  031%=      5-min Rain = 0
KQU1 142018Z 07004KT 32/13 A3013 RMK A01 T03230133  RH  031%=      5-min Rain = 0
KQU1 142019Z 02001KT 32/13 A3013 RMK A01 T03230134  RH  032%=      5-min Rain = 0
KQU1 142020Z 15004KT 33/14 A3013 RMK A01 T03250139  RH  032%=      5-min Rain = 0
KQU1 142021Z 14004KT 33/14 A3013 RMK A01 T03270138  RH  032%=      5-min Rain = 0
KQU1 142022Z 12003KT 33/14 A3013 RMK A01 T03280138  RH  032%=      5-min Rain = 0
KQU1 142023Z 14007KT 33/14 A3013 RMK A01 T03300139  RH  032%=      5-min Rain = 0
KQU1 142024Z 12005KT 33/14 A3013 RMK A01 T03300137  RH  031%=      5-min Rain = 0
KQU1 142025Z 14005KT 33/13 A3012 RMK A01 T03290134  RH  031%=      5-min Rain = 0
KQU1 142026Z 16005KT 33/13 A3012 RMK A01 T03260134  RH  031%=      5-min Rain = 0
KQU1 142027Z 15004KT 33/14 A3012 RMK A01 T03250135  RH  031%=      5-min Rain = 0
KQU1 142028Z 15004KT 33/14 A3012 RMK A01 T03250135  RH  032%=      5-min Rain = 0
KQU1 142029Z 18003KT 32/13 A3012 RMK A01 T03240132  RH  031%=      5-min Rain = 0
KQU1 142030Z 22002KT 32/13 A3012 RMK A01 T03230132  RH  031%=      5-min Rain = 0
KQU1 142031Z 17003KT 32/13 A3012 RMK A01 T03230134  RH  032%=      5-min Rain = 0
KQU1 142032Z 13006KT 33/14 A3012 RMK A01 T03250136  RH  032%=      5-min Rain = 0
KQU1 142033Z 18004KT 33/13 A3012 RMK A01 T03260133  RH  031%=      5-min Rain = 0
KQU1 142034Z 18003KT 33/13 A3012 RMK A01 T03250132  RH  031%=      5-min Rain = 0
KQU1 142035Z 14002KT 33/13 A3012 RMK A01 T03260134  RH  031%=      5-min Rain = 0
KQU1 142036Z 11005KT 33/14 A3012 RMK A01 T03280136  RH  031%=      5-min Rain = 0
KQU1 142037Z 10004KT 33/13 A3012 RMK A01 T03300134  RH  031%=      5-min Rain = 0
KQU1 142038Z 09003KT 33/13 A3012 RMK A01 T03300133  RH  030%=      5-min Rain = 0
KQU1 142039Z 09007KT 33/13 A3012 RMK A01 T03300133  RH  030%=      5-min Rain = 0
KQU1 142040Z 09007KT 33/13 A3012 RMK A01 T03300134  RH  031%=      5-min Rain = 0
KQU1 142041Z 07004KT 33/13 A3012 RMK A01 T03310134  RH  030%=      5-min Rain = 0
KQU1 142042Z 04004KT 33/14 A3012 RMK A01 T03310135  RH  030%=      5-min Rain = 0
KQU1 142043Z 08005KT 33/13 A3012 RMK A01 T03310134  RH  030%=      5-min Rain = 0
KQU1 142044Z 10006KT 33/13 A3011 RMK A01 T03310133  RH  030%=      5-min Rain = 0
KQU1 142045Z 09010KT 33/14 A3011 RMK A01 T03300135  RH  031%=      5-min Rain = 0
KQU1 142046Z 07007KT 33/13 A3011 RMK A01 T03290134  RH  031%=      5-min Rain = 0
KQU1 142047Z 07007KT 33/13 A3011 RMK A01 T03280132  RH  031%=      5-min Rain = 0
KQU1 142048Z 09004KT 33/13 A3011 RMK A01 T03260133  RH  031%=      5-min Rain = 0
KQU1 142049Z 08002KT 33/13 A3011 RMK A01 T03260133  RH  031%=      5-min Rain = 0
KQU1 142050Z 04001KT 33/13 A3011 RMK A01 T03250131  RH  031%=      5-min Rain = 0
KQU1 142051Z 05002KT 33/13 A3011 RMK A01 T03250133  RH  031%=      5-min Rain = 0
KQU1 142052Z 06002KT 33/13 A3011 RMK A01 T03250131  RH  031%=      5-min Rain = 0
KQU1 142053Z 05003KT 33/13 A3011 RMK A01 T03250133  RH  031%=      5-min Rain = 0
KQU1 142054Z 02003KT 33/14 A301 RMK A01 T03250140  RH  033%=      5-min Rain = 0
KQU1 142055Z 08005KT 33/14 A3011 RMK A01 T03260136  RH  032%=      5-min Rain = 0
KQU1 142056Z 09007KT 33/13 A3011 RMK A01 T03270134  RH  031%=      5-min Rain = 0
KQU1 142057Z 11007KT 33/13 A3011 RMK A01 T03290130  RH  030%=      5-min Rain = 0
KQU1 142058Z 11007KT 33/13 A3011 RMK A01 T03290131  RH  030%=      5-min Rain = 0
KQU1 142059Z 11007KT 33/13 A3011 RMK A01 T03290129  RH  030%=      5-min Rain = 0
KQU1 142100Z 12007KT 33/13 A3011 RMK A01 T03280131  RH  030%=      5-min Rain = 0
KQU1 142101Z 13011KT 33/13 A301 RMK A01 T03290134  RH  031%=      5-min Rain = 0
KQU1 142102Z 13008G13KT 33/13 A3011 RMK A01 T03300133  RH  030%=      5-min Rain = 0
KQU1 142103Z 15006KT 33/13 A301 RMK A01 T03300132  RH  030%=      5-min Rain = 0
KQU1 142104Z 17003KT 33/13 A301 RMK A01 T03300130  RH  030%=      5-min Rain = 0
KQU1 142105Z 18003KT 33/13 A301 RMK A01 T03290130  RH  030%=      5-min Rain = 0
KQU1 142106Z 15003KT 33/13 A301 RMK A01 T03300131  RH  030%=      5-min Rain = 0
KQU1 142107Z 12003KT 33/13 A301 RMK A01 T03310131  RH  030%=      5-min Rain = 0
KQU1 142108Z 11004KT 33/13 A301 RMK A01 T03320133  RH  030%=      5-min Rain = 0
KQU1 142109Z 10006KT 33/13 A301 RMK A01 T03330132  RH  029%=      5-min Rain = 0
KQU1 142110Z 15003KT 33/13 A301 RMK A01 T03340130  RH  029%=      5-min Rain = 0
KQU1 142111Z 16002KT 33/13 A301 RMK A01 T03330129  RH  029%=      5-min Rain = 0
KQU1 142112Z 14003KT 33/13 A301 RMK A01 T03330130  RH  029%=      5-min Rain = 0
KQU1 142113Z 13004KT 33/13 A301 RMK A01 T03340133  RH  030%=      5-min Rain = 0
KQU1 142114Z 08009KT 34/13 A301 RMK A01 T03360133  RH  029%=      5-min Rain = 0
KQU1 142115Z 06005KT 34/13 A301 RMK A01 T03360132  RH  029%=      5-min Rain = 0
KQU1 142116Z 08005KT 34/13 A3009 RMK A01 T03360130  RH  029%=      5-min Rain = 0
KQU1 142117Z 11003KT 34/13 A3009 RMK A01 T03360130  RH  029%=      5-min Rain = 0
KQU1 142118Z 08002KT 34/13 A3009 RMK A01 T03360130  RH  029%=      5-min Rain = 0
KQU1 142119Z 06004KT 34/13 A3009 RMK A01 T03360129  RH  029%=      5-min Rain = 0
KQU1 142120Z 06004KT 34/13 A3009 RMK A01 T03370129  RH  029%=      5-min Rain = 0
KQU1 142121Z 05005KT 34/13 A3009 RMK A01 T03370129  RH  028%=      5-min Rain = 0
KQU1 142122Z 03006KT 34/13 A3009 RMK A01 T03370133  RH  029%=      5-min Rain = 0
KQU1 142123Z 04002KT 34/14 A3009 RMK A01 T03360135  RH  030%=      5-min Rain = 0
KQU1 142124Z 05006KT 34/13 A3009 RMK A01 T03360133  RH  029%=      5-min Rain = 0
KQU1 142125Z 04006KT 34/13 A3009 RMK A01 T03350129  RH  029%=      5-min Rain = 0
KQU1 142126Z 04005KT 33/13 A3009 RMK A01 T03330128  RH  029%=      5-min Rain = 0
KQU1 142127Z 02004KT 33/13 A3009 RMK A01 T03330133  RH  030%=      5-min Rain = 0
KQU1 142128Z 03002KT 33/13 A3009 RMK A01 T03340129  RH  029%=      5-min Rain = 0
KQU1 142129Z 03003KT 33/13 A3009 RMK A01 T03340130  RH  029%=      5-min Rain = 0
KQU1 142130Z 01002KT 33/13 A3009 RMK A01 T03340127  RH  028%=      5-min Rain = 0
KQU1 142131Z 07001KT 33/13 A3009 RMK A01 T03340127  RH  029%=      5-min Rain = 0
KQU1 142132Z 07002KT 34/13 A3009 RMK A01 T03350126  RH  028%=      5-min Rain = 0
KQU1 142133Z 10001KT 34/13 A3009 RMK A01 T03360126  RH  028%=      5-min Rain = 0
KQU1 142134Z 12007G13KT 34/13 A3009 RMK A01 T03370134  RH  029%=      5-min Rain = 0
KQU1 142135Z 12009KT 34/14 A3009 RMK A01 T03380135  RH  029%=      5-min Rain = 0
KQU1 142136Z 11013KT 34/13 A3009 RMK A01 T03370134  RH  029%=      5-min Rain = 0
KQU1 142137Z 11010KT 34/13 A3009 RMK A01 T03360132  RH  029%=      5-min Rain = 0
KQU1 142138Z 09008KT 34/14 A3009 RMK A01 T03360135  RH  030%=      5-min Rain = 0
KQU1 142139Z 10006KT 34/13 A3009 RMK A01 T03370132  RH  029%=      5-min Rain = 0
KQU1 142140Z 12009KT 34/13 A3009 RMK A01 T03370133  RH  029%=      5-min Rain = 0
KQU1 142141Z 10009KT 34/13 A3009 RMK A01 T03380133  RH  029%=      5-min Rain = 0
KQU1 142142Z 12006KT 34/13 A3009 RMK A01 T03360131  RH  029%=      5-min Rain = 0
KQU1 142143Z 12005G10KT 34/13 A3009 RMK A01 T03350133  RH  029%=      5-min Rain = 0
KQU1 142144Z 10008KT 34/13 A3009 RMK A01 T03360133  RH  029%=      5-min Rain = 0
KQU1 142145Z 11006KT 34/13 A3009 RMK A01 T03360132  RH  029%=      5-min Rain = 0
KQU1 142146Z 12004KT 34/13 A3009 RMK A01 T03370131  RH  029%=      5-min Rain = 0
KQU1 142147Z 14005KT 34/13 A3008 RMK A01 T03380130  RH  029%=      5-min Rain = 0
KQU1 142148Z 12005KT 34/13 A3008 RMK A01 T03380133  RH  029%=      5-min Rain = 0
KQU1 142149Z 10004KT 34/13 A3008 RMK A01 T03390132  RH  029%=      5-min Rain = 0
KQU1 142150Z 14004KT 34/13 A3008 RMK A01 T03390132  RH  029%=      5-min Rain = 0
KQU1 142151Z 12005KT 34/13 A3008 RMK A01 T03400134  RH  029%=      5-min Rain = 0
KQU1 142152Z 10004KT 34/14 A3008 RMK A01 T03410136  RH  029%=      5-min Rain = 0
KQU1 142153Z 12003KT 34/14 A3008 RMK A01 T03420135  RH  029%=      5-min Rain = 0
KQU1 142154Z 10004KT 34/13 A3008 RMK A01 T03420132  RH  028%=      5-min Rain = 0
KQU1 142155Z 10004KT 34/14 A3008 RMK A01 T03410135  RH  029%=      5-min Rain = 0
KQU1 142156Z 11008KT 34/14 A3008 RMK A01 T03420135  RH  029%=      5-min Rain = 0
KQU1 142157Z 06010KT 34/13 A3008 RMK A01 T03400133  RH  029%=      5-min Rain = 0
KQU1 142158Z 01003KT 34/13 A3008 RMK A01 T03380131  RH  029%=      5-min Rain = 0
KQU1 142159Z 21000KT 34/13 A3008 RMK A01 T03390134  RH  029%=      5-min Rain = 0
KQU1 142200Z 18002KT 34/14 A3008 RMK A01 T03410135  RH  029%=      5-min Rain = 0
KQU1 142201Z 09009G15KT 34/13 A3007 RMK A01 T03420134  RH  029%=      5-min Rain = 0
KQU1 142202Z 03003KT 34/13 A3008 RMK A01 T03430131  RH  028%=      5-min Rain = 0
KQU1 142203Z 03001KT 34/13 A3008 RMK A01 T03440131  RH  028%=      5-min Rain = 0
KQU1 142204Z 33001KT 35/13 A3007 RMK A01 T03450129  RH  027%=      5-min Rain = 0
KQU1 142205Z 31002KT 35/13 A3007 RMK A01 T03460128  RH  027%=      5-min Rain = 0
KQU1 142206Z 32002KT 35/13 A3007 RMK A01 T03470125  RH  026%=      5-min Rain = 0
KQU1 142207Z 34003KT 35/13 A3007 RMK A01 T03480126  RH  026%=      5-min Rain = 0
KQU1 142208Z 33004KT 35/13 A3007 RMK A01 T03460125  RH  026%=      5-min Rain = 0
KQU1 142209Z 34005KT 34/12 A3007 RMK A01 T03430123  RH  027%=      5-min Rain = 0
KQU1 142210Z 35006KT 34/12 A3007 RMK A01 T03400123  RH  027%=      5-min Rain = 0
KQU1 142211Z 02003KT 34/13 A3008 RMK A01 T03390129  RH  028%=      5-min Rain = 0
KQU1 142212Z 02004KT 34/14 A3007 RMK A01 T03390135  RH  029%=      5-min Rain = 0
KQU1 142213Z 00002KT 34/14 A3008 RMK A01 T03390138  RH  030%=      5-min Rain = 0
KQU1 142214Z 01006KT 34/14 A3008 RMK A01 T03390136  RH  029%=      5-min Rain = 0
KQU1 142215Z 02005KT 34/13 A3008 RMK A01 T03370131  RH  029%=      5-min Rain = 0
KQU1 142216Z 04007KT 34/13 A3008 RMK A01 T03360130  RH  029%=      5-min Rain = 0
KQU1 142217Z 06006KT 34/13 A3008 RMK A01 T03360129  RH  029%=      5-min Rain = 0
KQU1 142218Z 09003KT 34/13 A3008 RMK A01 T03360126  RH  028%=      5-min Rain = 0
KQU1 142219Z 04004KT 34/13 A3008 RMK A01 T03380128  RH  028%=      5-min Rain = 0
KQU1 142220Z 05006KT 34/13 A3008 RMK A01 T03380128  RH  028%=      5-min Rain = 0
KQU1 142221Z 05006KT 34/13 A3007 RMK A01 T03370126  RH  028%=      5-min Rain = 0
KQU1 142222Z 03004KT 34/13 A3007 RMK A01 T03360125  RH  028%=      5-min Rain = 0
KQU1 142223Z 09003KT 34/13 A3007 RMK A01 T03360126  RH  028%=      5-min Rain = 0
KQU1 142224Z 08004KT 34/13 A3007 RMK A01 T03360128  RH  028%=      5-min Rain = 0
KQU1 142225Z 05003KT 34/13 A3007 RMK A01 T03360127  RH  028%=      5-min Rain = 0
KQU1 142226Z 02005KT 34/13 A3007 RMK A01 T03360130  RH  029%=      5-min Rain = 0
KQU1 142227Z 35002KT 34/13 A3007 RMK A01 T03350131  RH  029%=      5-min Rain = 0
KQU1 142228Z 02002KT 34/13 A3007 RMK A01 T03360131  RH  029%=      5-min Rain = 0
KQU1 142229Z 32002KT 34/13 A3007 RMK A01 T03350130  RH  029%=      5-min Rain = 0
KQU1 142230Z 32002KT 34/13 A3007 RMK A01 T03350131  RH  029%=      5-min Rain = 0
KQU1 142231Z 04002KT 34/13 A3007 RMK A01 T03360131  RH  029%=      5-min Rain = 0
KQU1 142232Z 06003KT 34/13 A3007 RMK A01 T03370132  RH  029%=      5-min Rain = 0
KQU1 142233Z 09010KT 34/13 A3007 RMK A01 T03370134  RH  029%=      5-min Rain = 0
KQU1 142234Z 09009KT 34/13 A3007 RMK A01 T03380134  RH  029%=      5-min Rain = 0
KQU1 142235Z 11007KT 34/13 A3007 RMK A01 T03380133  RH  029%=      5-min Rain = 0
KQU1 142236Z 10005KT 34/13 A3007 RMK A01 T03380133  RH  029%=      5-min Rain = 0
KQU1 142237Z 12006KT 34/13 A3007 RMK A01 T03380134  RH  029%=      5-min Rain = 0
KQU1 142238Z 10010KT 34/13 A3007 RMK A01 T03380134  RH  029%=      5-min Rain = 0
KQU1 142239Z 10009KT 34/13 A3007 RMK A01 T03370133  RH  029%=      5-min Rain = 0
KQU1 142240Z 11007KT 34/14 A3007 RMK A01 T03370135  RH  029%=      5-min Rain = 0
KQU1 142241Z 10007KT 34/13 A3007 RMK A01 T03390134  RH  029%=      5-min Rain = 0
KQU1 142242Z 09007KT 34/13 A3007 RMK A01 T03390132  RH  029%=      5-min Rain = 0
KQU1 142243Z 07006KT 34/14 A3007 RMK A01 T03380135  RH  029%=      5-min Rain = 0
KQU1 142244Z 06004KT 34/14 A3007 RMK A01 T03380138  RH  030%=      5-min Rain = 0
KQU1 142245Z 05004KT 34/13 A3007 RMK A01 T03380134  RH  029%=      5-min Rain = 0
KQU1 142246Z 04002KT 34/14 A3007 RMK A01 T03380135  RH  029%=      5-min Rain = 0
KQU1 142247Z 04003KT 34/14 A3007 RMK A01 T03390136  RH  029%=      5-min Rain = 0
KQU1 142248Z 05007KT 34/14 A3007 RMK A01 T03390136  RH  029%=      5-min Rain = 0
KQU1 142249Z 04005KT 34/13 A3007 RMK A01 T03370133  RH  029%=      5-min Rain = 0
KQU1 142250Z 02004KT 34/14 A3007 RMK A01 T03370136  RH  030%=      5-min Rain = 0
KQU1 142251Z 35006KT 34/14 A3007 RMK A01 T03370138  RH  030%=      5-min Rain = 0
KQU1 142252Z 35007KT 34/14 A3007 RMK A01 T03360135  RH  030%=      5-min Rain = 0
KQU1 142253Z 35004KT 34/14 A3007 RMK A01 T03350136  RH  030%=      5-min Rain = 0
KQU1 142254Z 02004KT 34/14 A3007 RMK A01 T03360136  RH  030%=      5-min Rain = 0
KQU1 142255Z 36005KT 34/14 A3007 RMK A01 T03360136  RH  030%=      5-min Rain = 0
KQU1 142256Z 35006KT 34/14 A3007 RMK A01 T03360136  RH  030%=      5-min Rain = 0
KQU1 142257Z 36005KT 34/13 A3007 RMK A01 T03360133  RH  029%=      5-min Rain = 0
KQU1 142258Z 35003KT 34/13 A3007 RMK A01 T03360130  RH  029%=      5-min Rain = 0
KQU1 142259Z 34002KT 34/13 A3007 RMK A01 T03360129  RH  029%=      5-min Rain = 0
KQU1 142300Z 33003KT 34/13 A3007 RMK A01 T03360131  RH  029%=      5-min Rain = 0
KQU1 142301Z 31004KT 34/13 A3007 RMK A01 T03370128  RH  028%=      5-min Rain = 0
KQU1 142302Z 30001KT 34/13 A3007 RMK A01 T03390128  RH  028%=      5-min Rain = 0
KQU1 142303Z 09002KT 34/13 A3007 RMK A01 T03410130  RH  028%=      5-min Rain = 0
KQU1 142304Z 08003KT 34/13 A3007 RMK A01 T03420126  RH  027%=      5-min Rain = 0
KQU1 142305Z 06001KT 34/13 A3007 RMK A01 T03420125  RH  027%=      5-min Rain = 0
KQU1 142306Z 00000KT 34/13 A3007 RMK A01 T03410125  RH  027%=      5-min Rain = 0
KQU1 142307Z 19001KT 34/13 A3007 RMK A01 T03400126  RH  027%=      5-min Rain = 0
KQU1 142308Z 05000KT 34/13 A3007 RMK A01 T03400128  RH  028%=      5-min Rain = 0
KQU1 142309Z 34000KT 34/13 A3007 RMK A01 T03410129  RH  028%=      5-min Rain = 0
KQU1 142310Z 04000KT 34/13 A3007 RMK A01 T03420130  RH  028%=      5-min Rain = 0
KQU1 142311Z 03002KT 34/13 A3007 RMK A01 T03430129  RH  027%=      5-min Rain = 0
KQU1 142312Z 02001KT 34/13 A3007 RMK A01 T03420129  RH  028%=      5-min Rain = 0
KQU1 142313Z 02002KT 34/13 A3007 RMK A01 T03420132  RH  028%=      5-min Rain = 0
KQU1 142314Z 01003KT 34/13 A3007 RMK A01 T03410134  RH  029%=      5-min Rain = 0
KQU1 142315Z 02003KT 34/14 A3007 RMK A01 T03400140  RH  030%=      5-min Rain = 0
KQU1 142316Z 02003KT 34/14 A3007 RMK A01 T03400140  RH  030%=      5-min Rain = 0
KQU1 142317Z 00003KT 34/14 A3007 RMK A01 T03410135  RH  029%=      5-min Rain = 0
KQU1 142318Z 03004G9KT 34/14 A3007 RMK A01 T03400135  RH  029%=      5-min Rain = 0
KQU1 142319Z 04008KT 34/14 A3007 RMK A01 T03400135  RH  029%=      5-min Rain = 0
KQU1 142320Z 05007KT 34/13 A3007 RMK A01 T03370133  RH  029%=      5-min Rain = 0
KQU1 142321Z 04007KT 34/13 A3007 RMK A01 T03360133  RH  029%=      5-min Rain = 0
KQU1 142322Z 03008KT 33/13 A3007 RMK A01 T03340132  RH  029%=      5-min Rain = 0
KQU1 142323Z 03008KT 33/13 A3007 RMK A01 T03330134  RH  030%=      5-min Rain = 0
KQU1 142324Z 01004KT 33/14 A3007 RMK A01 T03310137  RH  031%=      5-min Rain = 0
KQU1 142325Z 02009KT 33/13 A3007 RMK A01 T03290134  RH  031%=      5-min Rain = 0
KQU1 142326Z 02006KT 33/13 A3007 RMK A01 T03270130  RH  030%=      5-min Rain = 0
KQU1 142327Z 00004KT 33/13 A3007 RMK A01 T03260128  RH  030%=      5-min Rain = 0
KQU1 142328Z 01003KT 33/13 A3007 RMK A01 T03280130  RH  030%=      5-min Rain = 0
KQU1 142329Z 00003KT 33/13 A3007 RMK A01 T03300134  RH  031%=      5-min Rain = 0
KQU1 142330Z 01004KT 33/13 A3007 RMK A01 T03320130  RH  029%=      5-min Rain = 0
KQU1 142331Z 04003KT 33/13 A3007 RMK A01 T03330129  RH  029%=      5-min Rain = 0
KQU1 142332Z 09005KT 33/13 A3007 RMK A01 T03340132  RH  029%=      5-min Rain = 0
KQU1 142333Z 10006KT 34/13 A3007 RMK A01 T03360129  RH  029%=      5-min Rain = 0
KQU1 142334Z 10006KT 34/13 A3007 RMK A01 T03370125  RH  028%=      5-min Rain = 0
KQU1 142335Z 09007KT 34/12 A3007 RMK A01 T03370124  RH  027%=      5-min Rain = 0
KQU1 142336Z 06009KT 34/12 A3007 RMK A01 T03370122  RH  027%=      5-min Rain = 0
KQU1 142337Z 06009KT 34/12 A3007 RMK A01 T03360121  RH  027%=      5-min Rain = 0
KQU1 142338Z 05006KT 34/12 A3007 RMK A01 T03350122  RH  027%=      5-min Rain = 0
KQU1 142339Z 05005KT 34/12 A3007 RMK A01 T03360121  RH  027%=      5-min Rain = 0
KQU1 142340Z 06004KT 34/12 A3007 RMK A01 T03360122  RH  027%=      5-min Rain = 0
KQU1 142341Z 08004KT 34/12 A3007 RMK A01 T03360123  RH  027%=      5-min Rain = 0
KQU1 142342Z 05007KT 34/12 A3007 RMK A01 T03360121  RH  027%=      5-min Rain = 0
KQU1 142343Z 04007KT 34/12 A3007 RMK A01 T03350122  RH  027%=      5-min Rain = 0
KQU1 142344Z 05008KT 33/12 A3007 RMK A01 T03340123  RH  028%=      5-min Rain = 0
KQU1 142345Z 04008KT 33/12 A3007 RMK A01 T03330121  RH  028%=      5-min Rain = 0
KQU1 142346Z 03006KT 33/12 A3007 RMK A01 T03320124  RH  028%=      5-min Rain = 0
KQU1 142347Z 05005KT 33/13 A3007 RMK A01 T03310126  RH  029%=      5-min Rain = 0
KQU1 142348Z 04004KT 33/13 A3007 RMK A01 T03320126  RH  029%=      5-min Rain = 0
KQU1 142349Z 06008KT 33/12 A3007 RMK A01 T03320123  RH  028%=      5-min Rain = 0
KQU1 142350Z 05007KT 33/12 A3007 RMK A01 T03320119  RH  027%=      5-min Rain = 0
KQU1 142351Z 05004KT 33/12 A3007 RMK A01 T03330122  RH  028%=      5-min Rain = 0
KQU1 142352Z 07005KT 33/12 A3007 RMK A01 T03340123  RH  028%=      5-min Rain = 0
KQU1 142353Z 08010KT 33/12 A3007 RMK A01 T03340119  RH  027%=      5-min Rain = 0
KQU1 142354Z 08010KT 33/12 A3007 RMK A01 T03340116  RH  026%=      5-min Rain = 0
KQU1 142355Z 08006KT 33/12 A3007 RMK A01 T03340116  RH  027%=      5-min Rain = 0
KQU1 142356Z 09006KT 33/12 A3007 RMK A01 T03340115  RH  026%=      5-min Rain = 0
KQU1 142357Z 11006KT 33/12 A3007 RMK A01 T03340116  RH  027%=      5-min Rain = 0
KQU1 142358Z 11005KT 33/12 A3007 RMK A01 T03340117  RH  027%=      5-min Rain = 0
KQU1 142359Z 07004KT 33/12 A3007 RMK A01 T03340117  RH  027%=      5-min Rain = 0
KQU1 150000Z 03006KT 33/12 A3007 RMK A01 T03340118  RH  027%=      5-min Rain = 0
KQU1 150001Z 05005KT 33/12 A3007 RMK A01 T03340122  RH  028%=      5-min Rain = 0
KQU1 150002Z 05007KT 33/12 A3007 RMK A01 T03340122  RH  028%=      5-min Rain = 0
KQU1 150003Z 05007KT 33/12 A3007 RMK A01 T03330117  RH  027%=      5-min Rain = 0
KQU1 150004Z 04006KT 33/12 A3007 RMK A01 T03330118  RH  027%=      5-min Rain = 0
KQU1 150005Z 02005KT 33/12 A3007 RMK A01 T03310116  RH  027%=      5-min Rain = 0
KQU1 150006Z 04005KT 33/12 A3007 RMK A01 T03300121  RH  028%=      5-min Rain = 0
KQU1 150007Z 05007KT 33/12 A3007 RMK A01 T03290120  RH  028%=      5-min Rain = 0
KQU1 150008Z 05008KT 33/12 A3007 RMK A01 T03290117  RH  028%=      5-min Rain = 0
KQU1 150009Z 04007KT 33/12 A3007 RMK A01 T03280117  RH  027%=      5-min Rain = 0
KQU1 150010Z 04006KT 33/12 A3007 RMK A01 T03280115  RH  027%=      5-min Rain = 0
KQU1 150011Z 06005KT 33/12 A3007 RMK A01 T03280118  RH  028%=      5-min Rain = 0
KQU1 150012Z 08006KT 33/12 A3007 RMK A01 T03290116  RH  027%=      5-min Rain = 0
KQU1 150013Z 09008KT 33/12 A3007 RMK A01 T03300115  RH  027%=      5-min Rain = 0
KQU1 150014Z 10009KT 33/11 A3007 RMK A01 T03310113  RH  027%=      5-min Rain = 0
KQU1 150015Z 09007KT 33/12 A3007 RMK A01 T03310115  RH  027%=      5-min Rain = 0
KQU1 150016Z 11008KT 33/12 A3007 RMK A01 T03310115  RH  027%=      5-min Rain = 0
KQU1 150017Z 09007KT 33/11 A3007 RMK A01 T03320114  RH  026%=      5-min Rain = 0
KQU1 150018Z 09005KT 33/11 A3007 RMK A01 T03320113  RH  026%=      5-min Rain = 0
KQU1 150019Z 09006KT 33/11 A3007 RMK A01 T03320113  RH  026%=      5-min Rain = 0
KQU1 150020Z 09006KT 33/11 A3007 RMK A01 T03320113  RH  026%=      5-min Rain = 0
KQU1 150021Z 09005KT 33/11 A3007 RMK A01 T03320114  RH  026%=      5-min Rain = 0
KQU1 150022Z 08004KT 33/12 A3007 RMK A01 T03330115  RH  026%=      5-min Rain = 0
KQU1 150023Z 06004KT 33/12 A3007 RMK A01 T03330119  RH  027%=      5-min Rain = 0
KQU1 150024Z 08007KT 33/12 A3007 RMK A01 T03320115  RH  027%=      5-min Rain = 0
KQU1 150025Z 08005KT 33/12 A3007 RMK A01 T03310115  RH  027%=      5-min Rain = 0
KQU1 150026Z 09008KT 33/12 A3007 RMK A01 T03310115  RH  027%=      5-min Rain = 0
KQU1 150027Z 10007KT 33/12 A3007 RMK A01 T03310115  RH  027%=      5-min Rain = 0
KQU1 150028Z 09006KT 33/11 A3007 RMK A01 T03310113  RH  026%=      5-min Rain = 0
KQU1 150029Z 08007KT 33/11 A3007 RMK A01 T03300113  RH  026%=      5-min Rain = 0
KQU1 150030Z 06006KT 33/11 A3007 RMK A01 T03300109  RH  026%=      5-min Rain = 0
KQU1 150031Z 06005KT 33/11 A3007 RMK A01 T03290112  RH  026%=      5-min Rain = 0
KQU1 150032Z 07005KT 33/11 A3007 RMK A01 T03290111  RH  026%=      5-min Rain = 0
KQU1 150033Z 07005KT 33/11 A3007 RMK A01 T03280110  RH  026%=      5-min Rain = 0
KQU1 150034Z 07007KT 33/11 A3007 RMK A01 T03280110  RH  026%=      5-min Rain = 0
KQU1 150035Z 06006KT 33/11 A3007 RMK A01 T03280112  RH  027%=      5-min Rain = 0
KQU1 150036Z 06005KT 33/12 A3007 RMK A01 T03280115  RH  027%=      5-min Rain = 0
KQU1 150037Z 05006KT 33/12 A3007 RMK A01 T03270115  RH  027%=      5-min Rain = 0
KQU1 150038Z 05008KT 33/11 A3007 RMK A01 T03260114  RH  027%=      5-min Rain = 0
KQU1 150039Z 04005KT 33/11 A3007 RMK A01 T03250113  RH  027%=      5-min Rain = 0
KQU1 150040Z 06004KT 32/11 A3007 RMK A01 T03240113  RH  027%=      5-min Rain = 0
KQU1 150041Z 06005KT 32/11 A3007 RMK A01 T03230112  RH  028%=      5-min Rain = 0
KQU1 150042Z 06005KT 32/11 A3007 RMK A01 T03220112  RH  028%=      5-min Rain = 0
KQU1 150043Z 07006KT 32/11 A3007 RMK A01 T03220112  RH  028%=      5-min Rain = 0
KQU1 150044Z 08005KT 32/11 A3007 RMK A01 T03220110  RH  027%=      5-min Rain = 0
KQU1 150045Z 08005KT 32/11 A3008 RMK A01 T03220109  RH  027%=      5-min Rain = 0
KQU1 150046Z 07005KT 32/11 A3008 RMK A01 T03220110  RH  027%=      5-min Rain = 0
KQU1 150047Z 07004KT 32/11 A3008 RMK A01 T03220109  RH  027%=      5-min Rain = 0
KQU1 150048Z 07005KT 32/11 A3008 RMK A01 T03230107  RH  027%=      5-min Rain = 0
KQU1 150049Z 07006KT 32/11 A3008 RMK A01 T03230107  RH  027%=      5-min Rain = 0
KQU1 150050Z 08007KT 32/11 A3008 RMK A01 T03230106  RH  026%=      5-min Rain = 0
KQU1 150051Z 08006KT 32/11 A3008 RMK A01 T03230106  RH  026%=      5-min Rain = 0
KQU1 150052Z 06006KT 32/11 A3008 RMK A01 T03240107  RH  026%=      5-min Rain = 0
KQU1 150053Z 04006KT 32/11 A3008 RMK A01 T03230108  RH  027%=      5-min Rain = 0
KQU1 150054Z 04005KT 32/11 A3008 RMK A01 T03230110  RH  027%=      5-min Rain = 0
KQU1 150055Z 05004KT 32/11 A3008 RMK A01 T03230110  RH  027%=      5-min Rain = 0
KQU1 150056Z 05005KT 32/11 A3008 RMK A01 T03220111  RH  027%=      5-min Rain = 0
KQU1 150057Z 06004KT 32/11 A3008 RMK A01 T03220110  RH  027%=      5-min Rain = 0
KQU1 150058Z 05004KT 32/11 A3008 RMK A01 T03220113  RH  028%=      5-min Rain = 0
KQU1 150059Z 06004KT 32/11 A3008 RMK A01 T03210113  RH  028%=      5-min Rain = 0
KQU1 150100Z 06005KT 32/11 A3008 RMK A01 T03210113  RH  028%=      5-min Rain = 0
KQU1 150101Z 06006KT 32/11 A3008 RMK A01 T03210110  RH  027%=      5-min Rain = 0
KQU1 150102Z 06006KT 32/11 A3008 RMK A01 T03210109  RH  027%=      5-min Rain = 0
KQU1 150103Z 06003KT 32/11 A3008 RMK A01 T03210109  RH  027%=      5-min Rain = 0
KQU1 150104Z 07005KT 32/11 A3008 RMK A01 T03210109  RH  027%=      5-min Rain = 0
KQU1 150105Z 07006KT 32/11 A3008 RMK A01 T03210108  RH  027%=      5-min Rain = 0
KQU1 150106Z 08005KT 32/11 A3008 RMK A01 T03210108  RH  027%=      5-min Rain = 0
KQU1 150107Z 06004KT 32/11 A3008 RMK A01 T03200108  RH  027%=      5-min Rain = 0
KQU1 150108Z 07005KT 32/11 A3008 RMK A01 T03200109  RH  027%=      5-min Rain = 0
KQU1 150109Z 08005KT 32/11 A3008 RMK A01 T03190109  RH  028%=      5-min Rain = 0
KQU1 150110Z 08004KT 32/11 A3008 RMK A01 T03180109  RH  028%=      5-min Rain = 0
KQU1 150111Z 08004KT 32/11 A3008 RMK A01 T03180110  RH  028%=      5-min Rain = 0
KQU1 150112Z 09005KT 32/11 A3008 RMK A01 T03170110  RH  028%=      5-min Rain = 0
KQU1 150113Z 09006KT 32/11 A3008 RMK A01 T03160111  RH  028%=      5-min Rain = 0
KQU1 150114Z 09006KT 32/11 A3008 RMK A01 T03150113  RH  029%=      5-min Rain = 0
KQU1 150115Z 09008KT 31/12 A3009 RMK A01 T03140117  RH  030%=      5-min Rain = 0
KQU1 150116Z 10006KT 31/12 A3009 RMK A01 T03130119  RH  030%=      5-min Rain = 0
KQU1 150117Z 10007KT 31/13 A3009 RMK A01 T03120125  RH  032%=      5-min Rain = 0
KQU1 150118Z 10008KT 31/13 A3009 RMK A01 T03110130  RH  033%=      5-min Rain = 0
KQU1 150119Z 11008KT 31/13 A3009 RMK A01 T03100133  RH  034%=      5-min Rain = 0
KQU1 150120Z 11009KT 31/14 A3009 RMK A01 T03080135  RH  035%=      5-min Rain = 0
KQU1 150121Z 12008KT 31/14 A3009 RMK A01 T03080136  RH  035%=      5-min Rain = 0
KQU1 150122Z 12008KT 31/14 A3009 RMK A01 T03070135  RH  035%=      5-min Rain = 0
KQU1 150123Z 13008KT 31/14 A3009 RMK A01 T03060136  RH  036%=      5-min Rain = 0
KQU1 150124Z 12006KT 31/14 A3009 RMK A01 T03050137  RH  036%=      5-min Rain = 0
KQU1 150125Z 12007KT 30/14 A3009 RMK A01 T03040137  RH  036%=      5-min Rain = 0
KQU1 150126Z 11006KT 30/14 A3009 RMK A01 T03030139  RH  037%=      5-min Rain = 0
KQU1 150127Z 11006KT 30/14 A3009 RMK A01 T03020140  RH  037%=      5-min Rain = 0
KQU1 150128Z 11005KT 30/14 A3009 RMK A01 T03010141  RH  037%=      5-min Rain = 0
KQU1 150129Z 11005KT 30/14 A3009 RMK A01 T03000141  RH  038%=      5-min Rain = 0
KQU1 150130Z 11006KT 30/14 A3009 RMK A01 T02990142  RH  038%=      5-min Rain = 0
KQU1 150131Z 11004KT 30/14 A3009 RMK A01 T02990142  RH  039%=      5-min Rain = 0
KQU1 150132Z 11005KT 30/14 A3009 RMK A01 T02980143  RH  039%=      5-min Rain = 0
KQU1 150133Z 11006KT 30/14 A3009 RMK A01 T02970144  RH  039%=      5-min Rain = 0
KQU1 150134Z 10006KT 30/14 A3009 RMK A01 T02960144  RH  039%=      5-min Rain = 0
KQU1 150135Z 10005KT 30/14 A3009 RMK A01 T02960144  RH  040%=      5-min Rain = 0
KQU1 150136Z 10005KT 30/14 A3009 RMK A01 T02950144  RH  040%=      5-min Rain = 0
KQU1 150137Z 11005KT 30/14 A3009 RMK A01 T02950144  RH  040%=      5-min Rain = 0
KQU1 150138Z 10006KT 29/14 A3009 RMK A01 T02940144  RH  040%=      5-min Rain = 0
KQU1 150139Z 10006KT 29/14 A3009 RMK A01 T02940143  RH  040%=      5-min Rain = 0
KQU1 150140Z 11006KT 29/14 A3009 RMK A01 T02940143  RH  040%=      5-min Rain = 0
KQU1 150141Z 10006KT 29/14 A3009 RMK A01 T02930143  RH  040%=      5-min Rain = 0
KQU1 150142Z 10005KT 29/14 A3009 RMK A01 T02930143  RH  040%=      5-min Rain = 0
KQU1 150143Z 10006KT 29/14 A3009 RMK A01 T02930143  RH  040%=      5-min Rain = 0
KQU1 150144Z 10006KT 29/14 A3009 RMK A01 T02920143  RH  040%=      5-min Rain = 0
KQU1 150145Z 10006KT 29/14 A3009 RMK A01 T02920143  RH  040%=      5-min Rain = 0
KQU1 150146Z 10006KT 29/14 A3009 RMK A01 T02920143  RH  040%=      5-min Rain = 0
KQU1 150147Z 10007KT 29/14 A3009 RMK A01 T02930144  RH  040%=      5-min Rain = 0
KQU1 150148Z 10007KT 29/14 A3009 RMK A01 T02930144  RH  040%=      5-min Rain = 0
KQU1 150149Z 10007KT 29/14 A3009 RMK A01 T02930144  RH  040%=      5-min Rain = 0
KQU1 150150Z 09007KT 29/14 A301 RMK A01 T02940143  RH  040%=      5-min Rain = 0
KQU1 150151Z 09006KT 29/14 A301 RMK A01 T02940143  RH  040%=      5-min Rain = 0
KQU1 150152Z 09006KT 29/14 A301 RMK A01 T02940143  RH  040%=      5-min Rain = 0
KQU1 150153Z 09006KT 29/14 A301 RMK A01 T02940143  RH  040%=      5-min Rain = 0
KQU1 150154Z 09006KT 29/14 A301 RMK A01 T02930144  RH  040%=      5-min Rain = 0
KQU1 150155Z 09006KT 29/14 A301 RMK A01 T02930144  RH  040%=      5-min Rain = 0
KQU1 150156Z 08005KT 29/14 A301 RMK A01 T02930144  RH  040%=      5-min Rain = 0
KQU1 150157Z 08005KT 29/15 A301 RMK A01 T02920145  RH  040%=      5-min Rain = 0
KQU1 150158Z 08005KT 29/15 A301 RMK A01 T02920145  RH  041%=      5-min Rain = 0
KQU1 150159Z 08005KT 29/15 A301 RMK A01 T02920145  RH  041%=      5-min Rain = 0
KQU1 150200Z 09005KT 29/14 A301 RMK A01 T02910144  RH  041%=      5-min Rain = 0
KQU1 150201Z 08005KT 29/14 A301 RMK A01 T02910144  RH  041%=      5-min Rain = 0
KQU1 150202Z 09004KT 29/14 A301 RMK A01 T02910144  RH  041%=      5-min Rain = 0
KQU1 150203Z 09004KT 29/14 A301 RMK A01 T02910144  RH  041%=      5-min Rain = 0
KQU1 150204Z 09006KT 29/14 A301 RMK A01 T02900144  RH  041%=      5-min Rain = 0
KQU1 150205Z 09006KT 29/14 A301 RMK A01 T02900144  RH  041%=      5-min Rain = 0
KQU1 150206Z 09006KT 29/14 A301 RMK A01 T02890144  RH  041%=      5-min Rain = 0
KQU1 150207Z 09006KT 29/14 A301 RMK A01 T02890144  RH  041%=      5-min Rain = 0
KQU1 150208Z 09006KT 29/14 A301 RMK A01 T02890144  RH  041%=      5-min Rain = 0
KQU1 150209Z 09006KT 29/14 A3011 RMK A01 T02880144  RH  041%=      5-min Rain = 0
KQU1 150210Z 09006KT 29/14 A3011 RMK A01 T02880144  RH  041%=      5-min Rain = 0
KQU1 150211Z 09007KT 29/14 A3011 RMK A01 T02870144  RH  041%=      5-min Rain = 0
KQU1 150212Z 09006KT 29/14 A3011 RMK A01 T02870143  RH  041%=      5-min Rain = 0
KQU1 150213Z 09007KT 29/14 A3011 RMK A01 T02870143  RH  041%=      5-min Rain = 0
KQU1 150214Z 09007KT 29/14 A3011 RMK A01 T02870143  RH  041%=      5-min Rain = 0
KQU1 150215Z 10006KT 29/14 A3011 RMK A01 T02880143  RH  041%=      5-min Rain = 0
KQU1 150216Z 10006KT 29/14 A3011 RMK A01 T02880143  RH  041%=      5-min Rain = 0
KQU1 150217Z 10006KT 29/14 A3011 RMK A01 T02880143  RH  041%=      5-min Rain = 0
KQU1 150218Z 10006KT 29/14 A3011 RMK A01 T02870143  RH  041%=      5-min Rain = 0
KQU1 150219Z 10006KT 29/14 A3011 RMK A01 T02870143  RH  041%=      5-min Rain = 0
KQU1 150220Z 09006KT 29/14 A3011 RMK A01 T02860144  RH  042%=      5-min Rain = 0
KQU1 150221Z 10006KT 29/14 A3011 RMK A01 T02860144  RH  042%=      5-min Rain = 0
KQU1 150222Z 10006KT 29/14 A3011 RMK A01 T02850144  RH  042%=      5-min Rain = 0
KQU1 150223Z 10006KT 29/14 A3011 RMK A01 T02850144  RH  042%=      5-min Rain = 0
KQU1 150224Z 10006KT 28/15 A3011 RMK A01 T02840145  RH  042%=      5-min Rain = 0
KQU1 150225Z 10006KT 28/15 A3011 RMK A01 T02840145  RH  043%=      5-min Rain = 0
KQU1 150226Z 10007KT 28/15 A3011 RMK A01 T02830145  RH  043%=      5-min Rain = 0
KQU1 150227Z 10007KT 28/15 A3011 RMK A01 T02830145  RH  043%=      5-min Rain = 0
KQU1 150228Z 10006KT 28/15 A3011 RMK A01 T02820145  RH  043%=      5-min Rain = 0
KQU1 150229Z 10007KT 28/15 A3011 RMK A01 T02820146  RH  043%=      5-min Rain = 0
KQU1 150230Z 10008KT 28/15 A3011 RMK A01 T02810146  RH  044%=      5-min Rain = 0
KQU1 150231Z 10007KT 28/15 A3011 RMK A01 T02820147  RH  044%=      5-min Rain = 0
KQU1 150232Z 10008KT 28/15 A3011 RMK A01 T02810147  RH  044%=      5-min Rain = 0
KQU1 150233Z 10007KT 28/15 A3011 RMK A01 T02820147  RH  044%=      5-min Rain = 0
KQU1 150234Z 10008KT 28/15 A3011 RMK A01 T02820148  RH  044%=      5-min Rain = 0
KQU1 150235Z 10008KT 28/15 A3011 RMK A01 T02820148  RH  044%=      5-min Rain = 0
KQU1 150236Z 10008KT 28/15 A3011 RMK A01 T02820149  RH  044%=      5-min Rain = 0
KQU1 150237Z 10007KT 28/15 A3011 RMK A01 T02820149  RH  044%=      5-min Rain = 0
KQU1 150238Z 10007KT 28/15 A3011 RMK A01 T02820149  RH  044%=      5-min Rain = 0
KQU1 150239Z 10007KT 28/15 A3011 RMK A01 T02810150  RH  045%=      5-min Rain = 0
KQU1 150240Z 10008KT 28/15 A3011 RMK A01 T02810150  RH  045%=      5-min Rain = 0
KQU1 150241Z 10008KT 28/15 A3011 RMK A01 T02810151  RH  045%=      5-min Rain = 0
KQU1 150242Z 10008KT 28/15 A3011 RMK A01 T02810152  RH  045%=      5-min Rain = 0
KQU1 150243Z 10007KT 28/15 A3011 RMK A01 T02810152  RH  045%=      5-min Rain = 0
KQU1 150244Z 10008KT 28/15 A3011 RMK A01 T02810153  RH  046%=      5-min Rain = 0
KQU1 150245Z 10007KT 28/15 A3011 RMK A01 T02810154  RH  046%=      5-min Rain = 0
KQU1 150246Z 10008KT 28/15 A3012 RMK A01 T02810154  RH  046%=      5-min Rain = 0
KQU1 150247Z 10008KT 28/16 A3012 RMK A01 T02810155  RH  046%=      5-min Rain = 0
KQU1 150248Z 11007KT 28/16 A3012 RMK A01 T02810155  RH  046%=      5-min Rain = 0
KQU1 150249Z 10007KT 28/16 A3012 RMK A01 T02810155  RH  047%=      5-min Rain = 0
KQU1 150250Z 10007KT 28/16 A3012 RMK A01 T02810156  RH  047%=      5-min Rain = 0
KQU1 150251Z 10006KT 28/16 A3012 RMK A01 T02800156  RH  047%=      5-min Rain = 0
KQU1 150252Z 10007KT 28/16 A3012 RMK A01 T02800157  RH  047%=      5-min Rain = 0
KQU1 150253Z 11006KT 28/16 A3012 RMK A01 T02800157  RH  047%=      5-min Rain = 0
KQU1 150254Z 11006KT 28/16 A3012 RMK A01 T02790157  RH  047%=      5-min Rain = 0
KQU1 150255Z 11007KT 28/16 A3012 RMK A01 T02790158  RH  048%=      5-min Rain = 0
KQU1 150256Z 11006KT 28/16 A3012 RMK A01 T02780158  RH  048%=      5-min Rain = 0
KQU1 150257Z 11006KT 28/16 A3012 RMK A01 T02780159  RH  048%=      5-min Rain = 0
KQU1 150258Z 11005KT 28/16 A3012 RMK A01 T02780159  RH  048%=      5-min Rain = 0
KQU1 150259Z 11005KT 28/16 A3012 RMK A01 T02770159  RH  049%=      5-min Rain = 0
KQU1 150300Z 11006KT 28/16 A3012 RMK A01 T02770159  RH  049%=      5-min Rain = 0
KQU1 150301Z 11005KT 28/16 A3012 RMK A01 T02760160  RH  049%=      5-min Rain = 0
KQU1 150302Z 11005KT 28/16 A3012 RMK A01 T02760160  RH  049%=      5-min Rain = 0
KQU1 150303Z 10006KT 28/16 A3012 RMK A01 T02750160  RH  049%=      5-min Rain = 0
KQU1 150304Z 11006KT 28/16 A3012 RMK A01 T02750160  RH  050%=      5-min Rain = 0
KQU1 150305Z 11006KT 28/16 A3013 RMK A01 T02750160  RH  050%=      5-min Rain = 0
KQU1 150306Z 11006KT 27/16 A3013 RMK A01 T02740161  RH  050%=      5-min Rain = 0
KQU1 150307Z 11006KT 27/16 A3013 RMK A01 T02740161  RH  050%=      5-min Rain = 0
KQU1 150308Z 11006KT 27/16 A3013 RMK A01 T02740162  RH  050%=      5-min Rain = 0
KQU1 150309Z 11006KT 27/16 A3013 RMK A01 T02740162  RH  050%=      5-min Rain = 0
KQU1 150310Z 11005KT 27/16 A3013 RMK A01 T02740162  RH  050%=      5-min Rain = 0
KQU1 150311Z 11006KT 27/16 A3013 RMK A01 T02730162  RH  050%=      5-min Rain = 0
KQU1 150312Z 12005KT 27/16 A3013 RMK A01 T02730162  RH  051%=      5-min Rain = 0
KQU1 150313Z 12005KT 27/16 A3013 RMK A01 T02730162  RH  051%=      5-min Rain = 0
KQU1 150314Z 12005KT 27/16 A3013 RMK A01 T02720162  RH  051%=      5-min Rain = 0
KQU1 150315Z 11004KT 27/16 A3013 RMK A01 T02720162  RH  051%=      5-min Rain = 0
KQU1 150316Z 11005KT 27/16 A3013 RMK A01 T02710162  RH  051%=      5-min Rain = 0
KQU1 150317Z 12004KT 27/16 A3013 RMK A01 T02710162  RH  051%=      5-min Rain = 0
KQU1 150318Z 12005KT 27/16 A3013 RMK A01 T02710162  RH  051%=      5-min Rain = 0
KQU1 150319Z 12005KT 27/16 A3013 RMK A01 T02700162  RH  052%=      5-min Rain = 0
KQU1 150320Z 11006KT 27/16 A3013 RMK A01 T02690162  RH  052%=      5-min Rain = 0
KQU1 150321Z 11006KT 27/16 A3013 RMK A01 T02690162  RH  052%=      5-min Rain = 0
KQU1 150322Z 11006KT 27/16 A3014 RMK A01 T02690161  RH  052%=      5-min Rain = 0
KQU1 150323Z 11006KT 27/16 A3014 RMK A01 T02690161  RH  052%=      5-min Rain = 0
KQU1 150324Z 11005KT 27/16 A3014 RMK A01 T02690161  RH  052%=      5-min Rain = 0
KQU1 150325Z 11005KT 27/16 A3014 RMK A01 T02690161  RH  052%=      5-min Rain = 0
KQU1 150326Z 12004KT 27/16 A3014 RMK A01 T02690161  RH  052%=      5-min Rain = 0
KQU1 150327Z 12005KT 27/16 A3014 RMK A01 T02690161  RH  052%=      5-min Rain = 0
KQU1 150328Z 12005KT 27/16 A3014 RMK A01 T02680161  RH  052%=      5-min Rain = 0
KQU1 150329Z 12005KT 27/16 A3014 RMK A01 T02670161  RH  052%=      5-min Rain = 0
KQU1 150330Z 12005KT 27/16 A3014 RMK A01 T02670161  RH  052%=      5-min Rain = 0
KQU1 150331Z 11005KT 27/16 A3014 RMK A01 T02660161  RH  053%=      5-min Rain = 0
KQU1 150332Z 11005KT 27/16 A3014 RMK A01 T02660162  RH  053%=      5-min Rain = 0
KQU1 150333Z 11005KT 27/16 A3014 RMK A01 T02650162  RH  053%=      5-min Rain = 0
KQU1 150334Z 11005KT 27/16 A3014 RMK A01 T02650162  RH  053%=      5-min Rain = 0
KQU1 150335Z 11006KT 27/16 A3014 RMK A01 T02650162  RH  053%=      5-min Rain = 0
KQU1 150336Z 11005KT 26/16 A3014 RMK A01 T02640162  RH  053%=      5-min Rain = 0
KQU1 150337Z 11006KT 26/16 A3014 RMK A01 T02640162  RH  053%=      5-min Rain = 0
KQU1 150338Z 11005KT 26/16 A3014 RMK A01 T02640162  RH  053%=      5-min Rain = 0
KQU1 150339Z 11006KT 26/16 A3014 RMK A01 T02640162  RH  053%=      5-min Rain = 0
KQU1 150340Z 11006KT 26/16 A3014 RMK A01 T02640162  RH  053%=      5-min Rain = 0
KQU1 150341Z 11006KT 26/16 A3014 RMK A01 T02640162  RH  053%=      5-min Rain = 0
KQU1 150342Z 11006KT 26/16 A3014 RMK A01 T02640162  RH  053%=      5-min Rain = 0
KQU1 150343Z 11006KT 27/16 A3014 RMK A01 T02650162  RH  053%=      5-min Rain = 0
KQU1 150344Z 11006KT 27/16 A3014 RMK A01 T02650162  RH  053%=      5-min Rain = 0
KQU1 150345Z 11006KT 27/16 A3014 RMK A01 T02650162  RH  053%=      5-min Rain = 0
KQU1 150346Z 11005KT 26/16 A3014 RMK A01 T02640162  RH  053%=      5-min Rain = 0
KQU1 150347Z 11005KT 26/16 A3014 RMK A01 T02640162  RH  053%=      5-min Rain = 0
KQU1 150348Z 11006KT 26/16 A3014 RMK A01 T02640162  RH  054%=      5-min Rain = 0
KQU1 150349Z 11006KT 26/16 A3014 RMK A01 T02640162  RH  054%=      5-min Rain = 0
KQU1 150350Z 11005KT 26/16 A3014 RMK A01 T02640162  RH  054%=      5-min Rain = 0
KQU1 150351Z 11006KT 26/16 A3015 RMK A01 T02630163  RH  054%=      5-min Rain = 0
KQU1 150352Z 11005KT 26/16 A3015 RMK A01 T02630163  RH  054%=      5-min Rain = 0
KQU1 150353Z 11005KT 26/16 A3015 RMK A01 T02630163  RH  054%=      5-min Rain = 0
KQU1 150354Z 11005KT 26/16 A3015 RMK A01 T02630163  RH  054%=      5-min Rain = 0
KQU1 150355Z 11005KT 26/16 A3015 RMK A01 T02620163  RH  054%=      5-min Rain = 0
KQU1 150356Z 11005KT 26/16 A3015 RMK A01 T02620163  RH  054%=      5-min Rain = 0
KQU1 150357Z 11005KT 26/16 A3015 RMK A01 T02620163  RH  054%=      5-min Rain = 0
KQU1 150358Z 11005KT 26/16 A3015 RMK A01 T02620163  RH  055%=      5-min Rain = 0
KQU1 150359Z 12005KT 26/16 A3015 RMK A01 T02610163  RH  055%=      5-min Rain = 0
KQU1 150400Z 12005KT 26/16 A3015 RMK A01 T02610163  RH  055%=      5-min Rain = 0
KQU1 150401Z 12004KT 26/16 A3015 RMK A01 T02600163  RH  055%=      5-min Rain = 0
KQU1 150402Z 12005KT 26/16 A3015 RMK A01 T02600163  RH  055%=      5-min Rain = 0
KQU1 150403Z 13005KT 26/16 A3015 RMK A01 T02600163  RH  055%=      5-min Rain = 0
KQU1 150404Z 13005KT 26/16 A3015 RMK A01 T02600163  RH  055%=      5-min Rain = 0
KQU1 150405Z 14005KT 26/16 A3015 RMK A01 T02600163  RH  055%=      5-min Rain = 0
KQU1 150406Z 14004KT 26/16 A3015 RMK A01 T02590163  RH  055%=      5-min Rain = 0
KQU1 150407Z 15004KT 26/16 A3015 RMK A01 T02590163  RH  056%=      5-min Rain = 0
KQU1 150408Z 14003KT 26/16 A3015 RMK A01 T02580163  RH  056%=      5-min Rain = 0
KQU1 150409Z 15004KT 26/16 A3015 RMK A01 T02570163  RH  056%=      5-min Rain = 0
KQU1 150410Z 15003KT 26/16 A3015 RMK A01 T02570163  RH  056%=      5-min Rain = 0
KQU1 150411Z 15004KT 26/16 A3015 RMK A01 T02570163  RH  056%=      5-min Rain = 0
KQU1 150412Z 16004KT 26/16 A3015 RMK A01 T02570163  RH  056%=      5-min Rain = 0
KQU1 150413Z 16004KT 26/16 A3015 RMK A01 T02570163  RH  056%=      5-min Rain = 0
KQU1 150414Z 17004KT 26/16 A3015 RMK A01 T02570163  RH  056%=      5-min Rain = 0
KQU1 150415Z 17003KT 26/16 A3015 RMK A01 T02570163  RH  056%=      5-min Rain = 0
KQU1 150416Z 18003KT 26/16 A3015 RMK A01 T02570163  RH  056%=      5-min Rain = 0
KQU1 150417Z 18003KT 26/16 A3015 RMK A01 T02570163  RH  056%=      5-min Rain = 0
KQU1 150418Z 20003KT 26/16 A3015 RMK A01 T02570163  RH  056%=      5-min Rain = 0
KQU1 150419Z 21003KT 26/16 A3015 RMK A01 T02560163  RH  056%=      5-min Rain = 0
KQU1 150420Z 21003KT 26/16 A3015 RMK A01 T02550163  RH  057%=      5-min Rain = 0
KQU1 150421Z 20004KT 25/16 A3015 RMK A01 T02540163  RH  057%=      5-min Rain = 0
KQU1 150422Z 18003KT 25/16 A3015 RMK A01 T02540164  RH  057%=      5-min Rain = 0
KQU1 150423Z 20003KT 25/16 A3015 RMK A01 T02540164  RH  057%=      5-min Rain = 0
KQU1 150424Z 19003KT 25/16 A3015 RMK A01 T02540163  RH  057%=      5-min Rain = 0
KQU1 150425Z 19003KT 25/16 A3015 RMK A01 T02540163  RH  057%=      5-min Rain = 0
KQU1 150426Z 20002KT 25/16 A3015 RMK A01 T02540163  RH  057%=      5-min Rain = 0
KQU1 150427Z 20004KT 25/16 A3016 RMK A01 T02540163  RH  057%=      5-min Rain = 0
KQU1 150428Z 18003KT 25/16 A3016 RMK A01 T02540163  RH  057%=      5-min Rain = 0
KQU1 150429Z 19003KT 25/16 A3016 RMK A01 T02540163  RH  057%=      5-min Rain = 0
KQU1 150430Z 18003KT 25/16 A3016 RMK A01 T02540163  RH  057%=      5-min Rain = 0
KQU1 150431Z 19003KT 25/16 A3016 RMK A01 T02540163  RH  057%=      5-min Rain = 0
KQU1 150432Z 19003KT 25/16 A3016 RMK A01 T02540163  RH  057%=      5-min Rain = 0
KQU1 150433Z 19003KT 25/16 A3016 RMK A01 T02540163  RH  057%=      5-min Rain = 0
KQU1 150434Z 19003KT 25/16 A3016 RMK A01 T02540163  RH  057%=      5-min Rain = 0
KQU1 150435Z 18004KT 26/16 A3016 RMK A01 T02550163  RH  057%=      5-min Rain = 0
KQU1 150436Z 17004KT 26/16 A3016 RMK A01 T02550163  RH  057%=      5-min Rain = 0
KQU1 150437Z 17004KT 26/16 A3016 RMK A01 T02560163  RH  056%=      5-min Rain = 0
KQU1 150438Z 17003KT 26/16 A3016 RMK A01 T02560162  RH  056%=      5-min Rain = 0
KQU1 150439Z 17003KT 26/16 A3016 RMK A01 T02560162  RH  056%=      5-min Rain = 0
KQU1 150440Z 17003KT 26/16 A3016 RMK A01 T02570162  RH  056%=      5-min Rain = 0
KQU1 150441Z 17003KT 26/16 A3016 RMK A01 T02570162  RH  056%=      5-min Rain = 0
KQU1 150442Z 16003KT 26/16 A3016 RMK A01 T02570162  RH  056%=      5-min Rain = 0
KQU1 150443Z 16003KT 26/16 A3016 RMK A01 T02570162  RH  056%=      5-min Rain = 0
KQU1 150444Z 16003KT 26/16 A3015 RMK A01 T02580162  RH  055%=      5-min Rain = 0
KQU1 150445Z 15003KT 26/16 A3015 RMK A01 T02580162  RH  055%=      5-min Rain = 0
KQU1 150446Z 16003KT 26/16 A3015 RMK A01 T02580162  RH  055%=      5-min Rain = 0
KQU1 150447Z 17003KT 26/16 A3015 RMK A01 T02580162  RH  055%=      5-min Rain = 0
KQU1 150448Z 16003KT 26/16 A3015 RMK A01 T02580162  RH  055%=      5-min Rain = 0
KQU1 150449Z 16003KT 26/16 A3015 RMK A01 T02580161  RH  055%=      5-min Rain = 0
KQU1 150450Z 16003KT 26/16 A3015 RMK A01 T02580161  RH  055%=      5-min Rain = 0
KQU1 150451Z 16003KT 26/16 A3015 RMK A01 T02580161  RH  055%=      5-min Rain = 0
KQU1 150452Z 16004KT 26/16 A3015 RMK A01 T02580161  RH  055%=      5-min Rain = 0
KQU1 150453Z 17004KT 26/16 A3015 RMK A01 T02580161  RH  055%=      5-min Rain = 0
KQU1 150454Z 17003KT 26/16 A3015 RMK A01 T02570161  RH  055%=      5-min Rain = 0
KQU1 150455Z 17003KT 26/16 A3015 RMK A01 T02570161  RH  055%=      5-min Rain = 0
KQU1 150456Z 17003KT 26/16 A3015 RMK A01 T02570161  RH  055%=      5-min Rain = 0
KQU1 150457Z 18004KT 26/16 A3015 RMK A01 T02570161  RH  055%=      5-min Rain = 0
KQU1 150458Z 18004KT 26/16 A3015 RMK A01 T02570161  RH  055%=      5-min Rain = 0
KQU1 150459Z 18004KT 26/16 A3015 RMK A01 T02560161  RH  055%=      5-min Rain = 0

Page generated in 0.0711 seconds.